Observation data for Amarillo 15 North Northwest on 01/19/2019      Previous  Date  Next       Current Mesonet Observations  Soil Data  Daily Summary Page  Observations in Plain Language
KAM3 190600Z 35017KT M00/M03 A301 RMK A01 T10041026  RH  085%=      5-min Rain = 0
KAM3 190601Z 34016KT M00/M03 A301 RMK A01 T10041026  RH  085%=      5-min Rain = 0
KAM3 190602Z 35015KT M01/M03 A301 RMK A01 T10051025  RH  086%=      5-min Rain = 0
KAM3 190603Z 35016KT M01/M03 A301 RMK A01 T10051025  RH  086%=      5-min Rain = 0
KAM3 190604Z 34018KT M01/M03 A301 RMK A01 T10051025  RH  087%=      5-min Rain = 0
KAM3 190605Z 35019KT M01/M03 A301 RMK A01 T10051025  RH  087%=      5-min Rain = 0
KAM3 190606Z 35017KT M01/M03 A301 RMK A01 T10051025  RH  086%=      5-min Rain = 0
KAM3 190607Z 34016KT M01/M03 A301 RMK A01 T10051025  RH  086%=      5-min Rain = 0
KAM3 190608Z 35015KT M01/M03 A3011 RMK A01 T10051026  RH  086%=      5-min Rain = 0
KAM3 190609Z 35018G25KT M01/M03 A3011 RMK A01 T10051025  RH  086%=      5-min Rain = 0
KAM3 190610Z 35022G28KT M01/M03 A3011 RMK A01 T10051026  RH  086%=      5-min Rain = 0
KAM3 190611Z 34021KT M01/M03 A3011 RMK A01 T10051027  RH  085%=      5-min Rain = 0
KAM3 190612Z 34019KT M01/M03 A3011 RMK A01 T10061027  RH  085%=      5-min Rain = 0
KAM3 190613Z 35018G23KT M01/M03 A3011 RMK A01 T10061028  RH  085%=      5-min Rain = 0
KAM3 190614Z 34020G25KT M01/M03 A3011 RMK A01 T10061027  RH  086%=      5-min Rain = 0
KAM3 190615Z 34019KT M01/M03 A3011 RMK A01 T10061027  RH  086%=      5-min Rain = 0
KAM3 190616Z 34021KT M01/M03 A3011 RMK A01 T10061028  RH  085%=      5-min Rain = 0
KAM3 190617Z 34018KT M01/M03 A3011 RMK A01 T10061028  RH  085%=      5-min Rain = 0
KAM3 190618Z 34019G25KT M01/M03 A3011 RMK A01 T10061028  RH  085%=      5-min Rain = 0
KAM3 190619Z 34019KT M01/M03 A3011 RMK A01 T10071028  RH  085%=      5-min Rain = 0
KAM3 190620Z 34017KT M01/M03 A3011 RMK A01 T10071029  RH  085%=      5-min Rain = 0
KAM3 190621Z 34016KT M01/M03 A3011 RMK A01 T10071028  RH  086%=      5-min Rain = 0
KAM3 190622Z 34018KT M01/M03 A3011 RMK A01 T10071028  RH  086%=      5-min Rain = 0
KAM3 190623Z 34019G24KT M01/M03 A3012 RMK A01 T10071028  RH  086%=      5-min Rain = 0
KAM3 190624Z 34018KT M01/M03 A3012 RMK A01 T10071028  RH  086%=      5-min Rain = 0
KAM3 190625Z 34019KT M01/M03 A3012 RMK A01 T10071028  RH  086%=      5-min Rain = 0
KAM3 190626Z 34023G28KT M01/M03 A3012 RMK A01 T10081029  RH  085%=      5-min Rain = 0
KAM3 190627Z 34020KT M01/M03 A3012 RMK A01 T10071030  RH  085%=      5-min Rain = 0
KAM3 190628Z 33023KT M01/M03 A3012 RMK A01 T10071030  RH  084%=      5-min Rain = 0
KAM3 190629Z 34019KT M01/M03 A3012 RMK A01 T10071030  RH  084%=      5-min Rain = 0
KAM3 190630Z 34020KT M01/M03 A3012 RMK A01 T10071030  RH  085%=      5-min Rain = 0
KAM3 190631Z 34018KT M01/M03 A3012 RMK A01 T10071030  RH  085%=      5-min Rain = 0
KAM3 190632Z 34016KT M01/M03 A3012 RMK A01 T10081030  RH  085%=      5-min Rain = 0
KAM3 190633Z 34018KT M01/M03 A3012 RMK A01 T10081030  RH  085%=      5-min Rain = 0
KAM3 190634Z 33017KT M01/M03 A3012 RMK A01 T10081030  RH  085%=      5-min Rain = 0
KAM3 190635Z 34018KT M01/M03 A3012 RMK A01 T10081030  RH  085%=      5-min Rain = 0
KAM3 190636Z 34015KT M01/M03 A3012 RMK A01 T10091030  RH  085%=      5-min Rain = 0
KAM3 190637Z 34016KT M01/M03 A3012 RMK A01 T10091030  RH  085%=      5-min Rain = 0
KAM3 190638Z 34018KT M01/M03 A3012 RMK A01 T10091031  RH  085%=      5-min Rain = 0
KAM3 190639Z 34019KT M01/M03 A3012 RMK A01 T10091031  RH  085%=      5-min Rain = 0
KAM3 190640Z 34019KT M01/M03 A3012 RMK A01 T10091031  RH  085%=      5-min Rain = 0
KAM3 190641Z 34018KT M01/M03 A3012 RMK A01 T10091032  RH  085%=      5-min Rain = 0
KAM3 190642Z 34017G22KT M01/M03 A3012 RMK A01 T10091032  RH  084%=      5-min Rain = 0
KAM3 190643Z 34017KT M01/M03 A3012 RMK A01 T10091033  RH  084%=      5-min Rain = 0
KAM3 190644Z 34016KT M01/M03 A3013 RMK A01 T10091033  RH  084%=      5-min Rain = 0
KAM3 190645Z 34018KT M01/M03 A3013 RMK A01 T10091033  RH  084%=      5-min Rain = 0
KAM3 190646Z 33017KT M01/M03 A3013 RMK A01 T10091033  RH  084%=      5-min Rain = 0
KAM3 190647Z 34017KT M01/M03 A3013 RMK A01 T10091033  RH  084%=      5-min Rain = 0
KAM3 190648Z 33018KT M01/M03 A3013 RMK A01 T10101033  RH  084%=      5-min Rain = 0
KAM3 190649Z 33018KT M01/M03 A3013 RMK A01 T10091033  RH  084%=      5-min Rain = 0
KAM3 190650Z 33016KT M01/M03 A3013 RMK A01 T10101033  RH  084%=      5-min Rain = 0
KAM3 190651Z 33014KT M01/M03 A3013 RMK A01 T10101033  RH  084%=      5-min Rain = 0
KAM3 190652Z 33014KT M01/M03 A3013 RMK A01 T10101033  RH  084%=      5-min Rain = 0
KAM3 190653Z 33014KT M01/M03 A3013 RMK A01 T10111033  RH  085%=      5-min Rain = 0
KAM3 190654Z 33016KT M01/M03 A3013 RMK A01 T10111033  RH  085%=      5-min Rain = 0
KAM3 190655Z 33016KT M01/M03 A3013 RMK A01 T10111033  RH  085%=      5-min Rain = 0
KAM3 190656Z 33013KT M01/M03 A3013 RMK A01 T10111033  RH  085%=      5-min Rain = 0
KAM3 190657Z 33016KT M01/M03 A3014 RMK A01 T10111033  RH  085%=      5-min Rain = 0
KAM3 190658Z 33014KT M01/M03 A3014 RMK A01 T10111033  RH  085%=      5-min Rain = 0
KAM3 190659Z 33013KT M01/M03 A3014 RMK A01 T10111034  RH  085%=      5-min Rain = 0
KAM3 190700Z 34016G21KT M01/M03 A3014 RMK A01 T10121034  RH  085%=      5-min Rain = 0
KAM3 190701Z 34017G23KT M01/M03 A3014 RMK A01 T10121034  RH  085%=      5-min Rain = 0
KAM3 190702Z 34017KT M01/M03 A3014 RMK A01 T10111034  RH  084%=      5-min Rain = 0
KAM3 190703Z 33014KT M01/M03 A3014 RMK A01 T10101034  RH  084%=      5-min Rain = 0
KAM3 190704Z 34016KT M01/M03 A3014 RMK A01 T10101034  RH  084%=      5-min Rain = 0
KAM3 190705Z 33014G19KT M01/M03 A3014 RMK A01 T10111034  RH  084%=      5-min Rain = 0
KAM3 190706Z 33014KT M01/M03 A3014 RMK A01 T10111034  RH  084%=      5-min Rain = 0
KAM3 190707Z 34013G18KT M01/M03 A3014 RMK A01 T10121034  RH  085%=      5-min Rain = 0
KAM3 190708Z 33015KT M01/M03 A3014 RMK A01 T10111034  RH  085%=      5-min Rain = 0
KAM3 190709Z 34014KT M01/M03 A3014 RMK A01 T10111034  RH  085%=      5-min Rain = 0
KAM3 190710Z 34013KT M01/M03 A3014 RMK A01 T10111034  RH  084%=      5-min Rain = 0
KAM3 190711Z 34013KT M01/M03 A3014 RMK A01 T10121034  RH  085%=      5-min Rain = 0
KAM3 190712Z 34013KT M01/M03 A3014 RMK A01 T10121034  RH  085%=      5-min Rain = 0
KAM3 190713Z 34010KT M01/M03 A3014 RMK A01 T10131034  RH  085%=      5-min Rain = 0
KAM3 190714Z 34013KT M01/M04 A3014 RMK A01 T10141035  RH  085%=      5-min Rain = 0
KAM3 190715Z 33013G18KT M01/M04 A3014 RMK A01 T10141035  RH  086%=      5-min Rain = 0
KAM3 190716Z 33015KT M01/M03 A3013 RMK A01 T10141034  RH  086%=      5-min Rain = 0
KAM3 190717Z 34013KT M01/M03 A3013 RMK A01 T10131034  RH  086%=      5-min Rain = 0
KAM3 190718Z 34011KT M01/M03 A3013 RMK A01 T10131034  RH  086%=      5-min Rain = 0
KAM3 190719Z 34012KT M01/M03 A3013 RMK A01 T10141034  RH  086%=      5-min Rain = 0
KAM3 190720Z 33011KT M01/M03 A3013 RMK A01 T10141034  RH  086%=      5-min Rain = 0
KAM3 190721Z 34011KT M01/M03 A3014 RMK A01 T10141034  RH  087%=      5-min Rain = 0
KAM3 190722Z 34011KT M02/M03 A3014 RMK A01 T10151034  RH  087%=      5-min Rain = 0
KAM3 190723Z 33009KT M02/M03 A3014 RMK A01 T10151034  RH  087%=      5-min Rain = 0
KAM3 190724Z 33009KT M02/M03 A3014 RMK A01 T10151034  RH  087%=      5-min Rain = 0
KAM3 190725Z 32008KT M02/M03 A3014 RMK A01 T10161034  RH  088%=      5-min Rain = 0
KAM3 190726Z 32010KT M02/M03 A3014 RMK A01 T10171034  RH  088%=      5-min Rain = 0
KAM3 190727Z 32014KT M02/M03 A3014 RMK A01 T10181033  RH  089%=      5-min Rain = 0
KAM3 190728Z 32016KT M02/M03 A3014 RMK A01 T10171033  RH  089%=      5-min Rain = 0
KAM3 190729Z 32013KT M02/M03 A3014 RMK A01 T10171034  RH  088%=      5-min Rain = 0
KAM3 190730Z 32014KT M02/M03 A3014 RMK A01 T10161034  RH  088%=      5-min Rain = 0
KAM3 190731Z 33016KT M02/M04 A3014 RMK A01 T10161035  RH  087%=      5-min Rain = 0
KAM3 190732Z 33014KT M02/M04 A3014 RMK A01 T10171036  RH  087%=      5-min Rain = 0
KAM3 190733Z 33013KT M02/M04 A3014 RMK A01 T10171036  RH  087%=      5-min Rain = 0
KAM3 190734Z 33014KT M02/M04 A3014 RMK A01 T10181037  RH  087%=      5-min Rain = 0
KAM3 190735Z 33015KT M02/M04 A3014 RMK A01 T10181037  RH  087%=      5-min Rain = 0
KAM3 190736Z 34015KT M02/M04 A3015 RMK A01 T10181038  RH  087%=      5-min Rain = 0
KAM3 190737Z 34016KT M02/M04 A3014 RMK A01 T10191039  RH  086%=      5-min Rain = 0
KAM3 190738Z 33015KT M02/M04 A3015 RMK A01 T10191039  RH  086%=      5-min Rain = 0
KAM3 190739Z 34018KT M02/M04 A3015 RMK A01 T10191040  RH  086%=      5-min Rain = 0
KAM3 190740Z 34014KT M02/M04 A3015 RMK A01 T10191041  RH  085%=      5-min Rain = 0
KAM3 190741Z 34016KT M02/M04 A3015 RMK A01 T10191042  RH  085%=      5-min Rain = 0
KAM3 190742Z 34016KT M02/M04 A3015 RMK A01 T10191042  RH  085%=      5-min Rain = 0
KAM3 190743Z 34013KT M02/M04 A3015 RMK A01 T10191042  RH  085%=      5-min Rain = 0
KAM3 190744Z 33012KT M02/M04 A3015 RMK A01 T10201042  RH  084%=      5-min Rain = 0
KAM3 190745Z 34017G22KT M02/M04 A3015 RMK A01 T10201042  RH  085%=      5-min Rain = 0
KAM3 190746Z 34016KT M02/M04 A3015 RMK A01 T10201042  RH  085%=      5-min Rain = 0
KAM3 190747Z 33016KT M02/M04 A3015 RMK A01 T10201043  RH  084%=      5-min Rain = 0
KAM3 190748Z 33015KT M02/M04 A3015 RMK A01 T10201043  RH  084%=      5-min Rain = 0
KAM3 190749Z 34013KT M02/M04 A3015 RMK A01 T10201043  RH  084%=      5-min Rain = 0
KAM3 190750Z 33014KT M02/M04 A3015 RMK A01 T10201044  RH  084%=      5-min Rain = 0
KAM3 190751Z 33015KT M02/M04 A3015 RMK A01 T10211044  RH  084%=      5-min Rain = 0
KAM3 190752Z 33015KT M02/M04 A3016 RMK A01 T10211043  RH  084%=      5-min Rain = 0
KAM3 190753Z 33015KT M02/M04 A3016 RMK A01 T10211044  RH  084%=      5-min Rain = 0
KAM3 190754Z 33013KT M02/M04 A3016 RMK A01 T10201044  RH  084%=      5-min Rain = 0
KAM3 190755Z 33012KT M02/M04 A3016 RMK A01 T10201044  RH  084%=      5-min Rain = 0
KAM3 190756Z 33014KT M02/M04 A3016 RMK A01 T10211044  RH  084%=      5-min Rain = 0
KAM3 190757Z 33011KT M02/M04 A3016 RMK A01 T10221044  RH  084%=      5-min Rain = 0
KAM3 190758Z 33012KT M02/M04 A3016 RMK A01 T10211044  RH  084%=      5-min Rain = 0
KAM3 190759Z 33013KT M02/M04 A3016 RMK A01 T10221044  RH  085%=      5-min Rain = 0
KAM3 190800Z 33012KT M02/M04 A3016 RMK A01 T10221044  RH  085%=      5-min Rain = 0
KAM3 190801Z 33014KT M02/M04 A3016 RMK A01 T10221044  RH  085%=      5-min Rain = 0
KAM3 190802Z 33013KT M02/M04 A3016 RMK A01 T10211044  RH  084%=      5-min Rain = 0
KAM3 190803Z 34012KT M02/M04 A3016 RMK A01 T10211044  RH  084%=      5-min Rain = 0
KAM3 190804Z 34012KT M02/M04 A3016 RMK A01 T10211044  RH  084%=      5-min Rain = 0
KAM3 190805Z 33010KT M02/M04 A3016 RMK A01 T10221044  RH  084%=      5-min Rain = 0
KAM3 190806Z 33016KT M02/M04 A3016 RMK A01 T10221044  RH  085%=      5-min Rain = 0
KAM3 190807Z 33014KT M02/M04 A3016 RMK A01 T10221044  RH  085%=      5-min Rain = 0
KAM3 190808Z 33011KT M02/M04 A3017 RMK A01 T10211044  RH  084%=      5-min Rain = 0
KAM3 190809Z 33012KT M02/M04 A3017 RMK A01 T10211044  RH  085%=      5-min Rain = 0
KAM3 190810Z 33011KT M02/M04 A3017 RMK A01 T10221044  RH  085%=      5-min Rain = 0
KAM3 190811Z 34013KT M02/M04 A3017 RMK A01 T10221043  RH  085%=      5-min Rain = 0
KAM3 190812Z 34012KT M02/M04 A3017 RMK A01 T10221043  RH  085%=      5-min Rain = 0
KAM3 190813Z 34012KT M02/M04 A3017 RMK A01 T10221043  RH  085%=      5-min Rain = 0
KAM3 190814Z 34013KT M02/M04 A3017 RMK A01 T10221043  RH  085%=      5-min Rain = 0
KAM3 190815Z 34017KT M02/M04 A3017 RMK A01 T10221044  RH  085%=      5-min Rain = 0
KAM3 190816Z 34013G18KT M02/M04 A3017 RMK A01 T10221044  RH  085%=      5-min Rain = 0
KAM3 190817Z 33015KT M02/M04 A3017 RMK A01 T10221044  RH  085%=      5-min Rain = 0
KAM3 190818Z 34013G18KT M02/M04 A3017 RMK A01 T10221044  RH  085%=      5-min Rain = 0
KAM3 190819Z 34017KT M02/M04 A3017 RMK A01 T10221044  RH  085%=      5-min Rain = 0
KAM3 190820Z 34015KT M02/M04 A3017 RMK A01 T10221044  RH  085%=      5-min Rain = 0
KAM3 190821Z 34016KT M02/M05 A3017 RMK A01 T10221045  RH  084%=      5-min Rain = 0
KAM3 190822Z 33014KT M02/M05 A3017 RMK A01 T10221045  RH  084%=      5-min Rain = 0
KAM3 190823Z 34013KT M02/M05 A3017 RMK A01 T10221045  RH  084%=      5-min Rain = 0
KAM3 190824Z 33016KT M02/M05 A3017 RMK A01 T10221045  RH  084%=      5-min Rain = 0
KAM3 190825Z 34016KT M02/M05 A3017 RMK A01 T10221045  RH  084%=      5-min Rain = 0
KAM3 190826Z 33013KT M02/M05 A3017 RMK A01 T10221045  RH  084%=      5-min Rain = 0
KAM3 190827Z 33015KT M02/M05 A3017 RMK A01 T10221045  RH  084%=      5-min Rain = 0
KAM3 190828Z 33015KT M02/M04 A3017 RMK A01 T10221044  RH  085%=      5-min Rain = 0
KAM3 190829Z 33016KT M02/M04 A3017 RMK A01 T10221044  RH  085%=      5-min Rain = 0
KAM3 190830Z 33014KT M02/M04 A3017 RMK A01 T10221044  RH  085%=      5-min Rain = 0
KAM3 190831Z 33016KT M02/M04 A3017 RMK A01 T10221044  RH  085%=      5-min Rain = 0
KAM3 190832Z 33014KT M02/M04 A3017 RMK A01 T10211044  RH  085%=      5-min Rain = 0
KAM3 190833Z 33013KT M02/M04 A3017 RMK A01 T10221044  RH  085%=      5-min Rain = 0
KAM3 190834Z 33014KT M02/M04 A3017 RMK A01 T10211044  RH  085%=      5-min Rain = 0
KAM3 190835Z 33011KT M02/M04 A3018 RMK A01 T10211044  RH  085%=      5-min Rain = 0
KAM3 190836Z 32016KT M02/M04 A3017 RMK A01 T10211043  RH  085%=      5-min Rain = 0
KAM3 190837Z 32015KT M02/M04 A3017 RMK A01 T10211044  RH  085%=      5-min Rain = 0
KAM3 190838Z 33016KT M02/M04 A3017 RMK A01 T10211044  RH  084%=      5-min Rain = 0
KAM3 190839Z 33014KT M02/M04 A3017 RMK A01 T10211044  RH  084%=      5-min Rain = 0
KAM3 190840Z 33014KT M02/M04 A3017 RMK A01 T10211044  RH  084%=      5-min Rain = 0
KAM3 190841Z 33014G19KT M02/M04 A3017 RMK A01 T10211043  RH  085%=      5-min Rain = 0
KAM3 190842Z 33014KT M02/M04 A3017 RMK A01 T10211043  RH  085%=      5-min Rain = 0
KAM3 190843Z 33013KT M02/M04 A3017 RMK A01 T10221043  RH  085%=      5-min Rain = 0
KAM3 190844Z 33014KT M02/M04 A3017 RMK A01 T10221043  RH  085%=      5-min Rain = 0
KAM3 190845Z 33017KT M02/M04 A3017 RMK A01 T10221043  RH  085%=      5-min Rain = 0
KAM3 190846Z 33015KT M02/M04 A3017 RMK A01 T10221044  RH  085%=      5-min Rain = 0
KAM3 190847Z 33014G19KT M02/M04 A3017 RMK A01 T10211044  RH  085%=      5-min Rain = 0
KAM3 190848Z 33016KT M02/M04 A3017 RMK A01 T10221044  RH  084%=      5-min Rain = 0
KAM3 190849Z 33015KT M02/M05 A3017 RMK A01 T10211045  RH  084%=      5-min Rain = 0
KAM3 190850Z 33012KT M02/M05 A3017 RMK A01 T10211045  RH  084%=      5-min Rain = 0
KAM3 190851Z 34016KT M02/M04 A3017 RMK A01 T10211044  RH  084%=      5-min Rain = 0
KAM3 190852Z 33015KT M02/M04 A3017 RMK A01 T10211044  RH  085%=      5-min Rain = 0
KAM3 190853Z 33015KT M02/M04 A3017 RMK A01 T10211044  RH  085%=      5-min Rain = 0
KAM3 190854Z 33016KT M02/M04 A3017 RMK A01 T10211044  RH  084%=      5-min Rain = 0
KAM3 190855Z 34015KT M02/M04 A3017 RMK A01 T10211044  RH  084%=      5-min Rain = 0
KAM3 190856Z 33015KT M02/M04 A3017 RMK A01 T10211044  RH  084%=      5-min Rain = 0
KAM3 190857Z 34019KT M02/M04 A3016 RMK A01 T10211044  RH  084%=      5-min Rain = 0
KAM3 190858Z 33016KT M02/M04 A3017 RMK A01 T10211044  RH  084%=      5-min Rain = 0
KAM3 190859Z 33015KT M02/M05 A3017 RMK A01 T10211045  RH  084%=      5-min Rain = 0
KAM3 190900Z 33014KT M02/M04 A3017 RMK A01 T10201044  RH  084%=      5-min Rain = 0
KAM3 190901Z 33016G21KT M02/M04 A3017 RMK A01 T10201044  RH  084%=      5-min Rain = 0
KAM3 190902Z 33014KT M02/M04 A3017 RMK A01 T10201044  RH  084%=      5-min Rain = 0
KAM3 190903Z 33021KT M02/M04 A3017 RMK A01 T10201043  RH  084%=      5-min Rain = 0
KAM3 190904Z 33016G23KT M02/M04 A3017 RMK A01 T10201043  RH  084%=      5-min Rain = 0
KAM3 190905Z 34018KT M02/M04 A3017 RMK A01 T10201043  RH  084%=      5-min Rain = 0
KAM3 190906Z 33015KT M02/M04 A3017 RMK A01 T10191043  RH  084%=      5-min Rain = 0
KAM3 190907Z 33018KT M02/M04 A3017 RMK A01 T10191043  RH  084%=      5-min Rain = 0
KAM3 190908Z 33018KT M02/M04 A3017 RMK A01 T10191043  RH  083%=      5-min Rain = 0
KAM3 190909Z 33015G20KT M02/M04 A3018 RMK A01 T10191044  RH  083%=      5-min Rain = 0
KAM3 190910Z 33012G18KT M02/M04 A3018 RMK A01 T10191043  RH  084%=      5-min Rain = 0
KAM3 190911Z 33015KT M02/M04 A3018 RMK A01 T10191042  RH  084%=      5-min Rain = 0
KAM3 190912Z 33014KT M02/M04 A3018 RMK A01 T10191042  RH  084%=      5-min Rain = 0
KAM3 190913Z 32012G17KT M02/M04 A3018 RMK A01 T10191041  RH  085%=      5-min Rain = 0
KAM3 190914Z 33016G21KT M02/M04 A3018 RMK A01 T10191041  RH  085%=      5-min Rain = 0
KAM3 190915Z 33014KT M02/M04 A3018 RMK A01 T10191041  RH  085%=      5-min Rain = 0
KAM3 190916Z 33013KT M02/M04 A3018 RMK A01 T10191041  RH  085%=      5-min Rain = 0
KAM3 190917Z 33014KT M02/M04 A3018 RMK A01 T10191041  RH  085%=      5-min Rain = 0
KAM3 190918Z 33015KT M02/M04 A3018 RMK A01 T10191041  RH  085%=      5-min Rain = 0
KAM3 190919Z 33014KT M02/M04 A3018 RMK A01 T10191041  RH  085%=      5-min Rain = 0
KAM3 190920Z 33012KT M02/M04 A3018 RMK A01 T10191041  RH  085%=      5-min Rain = 0
KAM3 190921Z 33013KT M02/M04 A3018 RMK A01 T10191041  RH  085%=      5-min Rain = 0
KAM3 190922Z 33014KT M02/M04 A3018 RMK A01 T10191040  RH  085%=      5-min Rain = 0
KAM3 190923Z 33016KT M02/M04 A3018 RMK A01 T10181041  RH  085%=      5-min Rain = 0
KAM3 190924Z 33016KT M02/M04 A3018 RMK A01 T10181041  RH  085%=      5-min Rain = 0
KAM3 190925Z 33014KT M02/M04 A3018 RMK A01 T10181040  RH  085%=      5-min Rain = 0
KAM3 190926Z 33015KT M02/M04 A3018 RMK A01 T10181040  RH  085%=      5-min Rain = 0
KAM3 190927Z 32013KT M02/M04 A3018 RMK A01 T10181040  RH  085%=      5-min Rain = 0
KAM3 190928Z 33015G20KT M02/M04 A3018 RMK A01 T10181040  RH  085%=      5-min Rain = 0
KAM3 190929Z 33020KT M02/M04 A3018 RMK A01 T10181040  RH  085%=      5-min Rain = 0
KAM3 190930Z 33016KT M02/M04 A3018 RMK A01 T10181040  RH  085%=      5-min Rain = 0
KAM3 190931Z 33015KT M02/M04 A3018 RMK A01 T10181040  RH  085%=      5-min Rain = 0
KAM3 190932Z 33019G25KT M02/M04 A3018 RMK A01 T10181040  RH  085%=      5-min Rain = 0
KAM3 190933Z 33019KT M02/M04 A3018 RMK A01 T10181041  RH  084%=      5-min Rain = 0
KAM3 190934Z 33018KT M02/M04 A3018 RMK A01 T10181041  RH  084%=      5-min Rain = 0
KAM3 190935Z 33017KT M02/M04 A3018 RMK A01 T10191042  RH  084%=      5-min Rain = 0
KAM3 190936Z 33019KT M02/M04 A3018 RMK A01 T10191042  RH  084%=      5-min Rain = 0
KAM3 190937Z 33017KT M02/M04 A3018 RMK A01 T10201043  RH  084%=      5-min Rain = 0
KAM3 190938Z 33017KT M02/M04 A3018 RMK A01 T10201042  RH  085%=      5-min Rain = 0
KAM3 190939Z 33019G24KT M02/M04 A3018 RMK A01 T10201043  RH  085%=      5-min Rain = 0
KAM3 190940Z 33018G23KT M02/M04 A3018 RMK A01 T10211043  RH  085%=      5-min Rain = 0
KAM3 190941Z 32014KT M02/M04 A3018 RMK A01 T10211044  RH  084%=      5-min Rain = 0
KAM3 190942Z 32018G24KT M02/M04 A3018 RMK A01 T10221044  RH  085%=      5-min Rain = 0
KAM3 190943Z 32018KT M02/M04 A3018 RMK A01 T10221043  RH  085%=      5-min Rain = 0
KAM3 190944Z 32016KT M02/M04 A3018 RMK A01 T10221044  RH  085%=      5-min Rain = 0
KAM3 190945Z 32017KT M02/M04 A3018 RMK A01 T10231044  RH  085%=      5-min Rain = 0
KAM3 190946Z 31015KT M02/M04 A3018 RMK A01 T10241044  RH  086%=      5-min Rain = 0
KAM3 190947Z 32016KT M02/M04 A3018 RMK A01 T10241044  RH  086%=      5-min Rain = 0
KAM3 190948Z 32014KT M02/M04 A3018 RMK A01 T10241044  RH  086%=      5-min Rain = 0
KAM3 190949Z 32014G19KT M02/M04 A3018 RMK A01 T10241044  RH  086%=      5-min Rain = 0
KAM3 190950Z 32016KT M03/M04 A3018 RMK A01 T10251044  RH  086%=      5-min Rain = 0
KAM3 190951Z 32017KT M03/M04 A3018 RMK A01 T10251044  RH  087%=      5-min Rain = 0
KAM3 190952Z 32017KT M03/M05 A3018 RMK A01 T10251045  RH  086%=      5-min Rain = 0
KAM3 190953Z 32014KT M03/M05 A3018 RMK A01 T10251045  RH  086%=      5-min Rain = 0
KAM3 190954Z 32014KT M03/M05 A3018 RMK A01 T10261046  RH  086%=      5-min Rain = 0
KAM3 190955Z 32015KT M03/M05 A3018 RMK A01 T10261046  RH  087%=      5-min Rain = 0
KAM3 190956Z 32015KT M03/M05 A3018 RMK A01 T10261045  RH  087%=      5-min Rain = 0
KAM3 190957Z 32014KT M03/M05 A3018 RMK A01 T10271045  RH  087%=      5-min Rain = 0
KAM3 190958Z 32014KT M03/M05 A3018 RMK A01 T10271045  RH  087%=      5-min Rain = 0
KAM3 190959Z 32016KT M03/M05 A3018 RMK A01 T10271045  RH  087%=      5-min Rain = 0
KAM3 191000Z 32014KT M03/M05 A3019 RMK A01 T10271045  RH  087%=      5-min Rain = 0
KAM3 191001Z 32016KT M03/M05 A3019 RMK A01 T10271045  RH  087%=      5-min Rain = 0
KAM3 191002Z 32016KT M03/M05 A3019 RMK A01 T10271045  RH  088%=      5-min Rain = 0
KAM3 191003Z 31014KT M03/M05 A3019 RMK A01 T10271045  RH  088%=      5-min Rain = 0
KAM3 191004Z 32013KT M03/M05 A3019 RMK A01 T10281045  RH  088%=      5-min Rain = 0
KAM3 191005Z 32013KT M03/M05 A3019 RMK A01 T10281046  RH  088%=      5-min Rain = 0
KAM3 191006Z 32015KT M03/M05 A3019 RMK A01 T10281045  RH  088%=      5-min Rain = 0
KAM3 191007Z 32014KT M03/M05 A3019 RMK A01 T10281045  RH  088%=      5-min Rain = 0
KAM3 191008Z 32013KT M03/M05 A3019 RMK A01 T10281045  RH  088%=      5-min Rain = 0
KAM3 191009Z 32015KT M03/M05 A3019 RMK A01 T10281045  RH  088%=      5-min Rain = 0
KAM3 191010Z 32014KT M03/M05 A3019 RMK A01 T10281045  RH  088%=      5-min Rain = 0
KAM3 191011Z 32013KT M03/M05 A3019 RMK A01 T10281045  RH  088%=      5-min Rain = 0
KAM3 191012Z 32012KT M03/M05 A3019 RMK A01 T10291045  RH  088%=      5-min Rain = 0
KAM3 191013Z 32013KT M03/M05 A3019 RMK A01 T10291046  RH  088%=      5-min Rain = 0
KAM3 191014Z 32012KT M03/M05 A3019 RMK A01 T10291045  RH  089%=      5-min Rain = 0
KAM3 191015Z 32015KT M03/M05 A3019 RMK A01 T10291045  RH  089%=      5-min Rain = 0
KAM3 191016Z 32013KT M03/M05 A3019 RMK A01 T10291045  RH  089%=      5-min Rain = 0
KAM3 191017Z 32015KT M03/M05 A3019 RMK A01 T10291046  RH  089%=      5-min Rain = 0
KAM3 191018Z 32015KT M03/M05 A3019 RMK A01 T10291045  RH  089%=      5-min Rain = 0
KAM3 191019Z 32015KT M03/M05 A3019 RMK A01 T10291045  RH  089%=      5-min Rain = 0
KAM3 191020Z 32014KT M03/M05 A3019 RMK A01 T10291045  RH  089%=      5-min Rain = 0
KAM3 191021Z 32014KT M03/M05 A3019 RMK A01 T10291045  RH  089%=      5-min Rain = 0
KAM3 191022Z 32013KT M03/M05 A3019 RMK A01 T10291045  RH  089%=      5-min Rain = 0
KAM3 191023Z 31013KT M03/M05 A3019 RMK A01 T10291045  RH  089%=      5-min Rain = 0
KAM3 191024Z 32014KT M03/M05 A3019 RMK A01 T10291045  RH  089%=      5-min Rain = 0
KAM3 191025Z 32012KT M03/M05 A3019 RMK A01 T10291045  RH  089%=      5-min Rain = 0
KAM3 191026Z 32014KT M03/M05 A3019 RMK A01 T10301045  RH  089%=      5-min Rain = 0
KAM3 191027Z 32013KT M03/M05 A3019 RMK A01 T10301045  RH  089%=      5-min Rain = 0
KAM3 191028Z 32011KT M03/M05 A3019 RMK A01 T10301045  RH  089%=      5-min Rain = 0
KAM3 191029Z 31013KT M03/M05 A3019 RMK A01 T10301045  RH  089%=      5-min Rain = 0
KAM3 191030Z 32013KT M03/M05 A3019 RMK A01 T10301045  RH  090%=      5-min Rain = 0
KAM3 191031Z 31012KT M03/M05 A3019 RMK A01 T10301045  RH  090%=      5-min Rain = 0
KAM3 191032Z 32012KT M03/M05 A3019 RMK A01 T10301045  RH  090%=      5-min Rain = 0
KAM3 191033Z 32011KT M03/M05 A3019 RMK A01 T10301045  RH  090%=      5-min Rain = 0
KAM3 191034Z 32011KT M03/M05 A3019 RMK A01 T10311045  RH  090%=      5-min Rain = 0
KAM3 191035Z 31011KT M03/M05 A3019 RMK A01 T10311045  RH  090%=      5-min Rain = 0
KAM3 191036Z 32012KT M03/M05 A3019 RMK A01 T10311045  RH  090%=      5-min Rain = 0
KAM3 191037Z 31011KT M03/M04 A302 RMK A01 T10311044  RH  091%=      5-min Rain = 0
KAM3 191038Z 32011KT M03/M04 A302 RMK A01 T10311044  RH  091%=      5-min Rain = 0
KAM3 191039Z 31010KT M03/M05 A302 RMK A01 T10311045  RH  091%=      5-min Rain = 0
KAM3 191040Z 31011KT M03/M05 A302 RMK A01 T10311045  RH  090%=      5-min Rain = 0
KAM3 191041Z 31012KT M03/M05 A302 RMK A01 T10311045  RH  091%=      5-min Rain = 0
KAM3 191042Z 31011KT M03/M04 A302 RMK A01 T10311044  RH  091%=      5-min Rain = 0
KAM3 191043Z 31013KT M03/M05 A302 RMK A01 T10321045  RH  091%=      5-min Rain = 0
KAM3 191044Z 31012KT M03/M05 A302 RMK A01 T10311045  RH  090%=      5-min Rain = 0
KAM3 191045Z 31012KT M03/M05 A302 RMK A01 T10311045  RH  090%=      5-min Rain = 0
KAM3 191046Z 31012KT M03/M05 A302 RMK A01 T10311045  RH  090%=      5-min Rain = 0
KAM3 191047Z 31012KT M03/M05 A302 RMK A01 T10311045  RH  090%=      5-min Rain = 0
KAM3 191048Z 31010KT M03/M05 A302 RMK A01 T10311045  RH  090%=      5-min Rain = 0
KAM3 191049Z 31011KT M03/M05 A302 RMK A01 T10311045  RH  090%=      5-min Rain = 0
KAM3 191050Z 31010KT M03/M05 A302 RMK A01 T10311045  RH  090%=      5-min Rain = 0
KAM3 191051Z 30011KT M03/M05 A302 RMK A01 T10321046  RH  090%=      5-min Rain = 0
KAM3 191052Z 30011KT M03/M05 A302 RMK A01 T10321045  RH  090%=      5-min Rain = 0
KAM3 191053Z 31012KT M03/M05 A302 RMK A01 T10321046  RH  090%=      5-min Rain = 0
KAM3 191054Z 31012KT M03/M05 A302 RMK A01 T10321046  RH  090%=      5-min Rain = 0
KAM3 191055Z 31012KT M03/M05 A302 RMK A01 T10321046  RH  090%=      5-min Rain = 0
KAM3 191056Z 31011KT M03/M05 A302 RMK A01 T10321046  RH  090%=      5-min Rain = 0
KAM3 191057Z 31011KT M03/M05 A302 RMK A01 T10321046  RH  090%=      5-min Rain = 0
KAM3 191058Z 31011KT M03/M05 A302 RMK A01 T10321047  RH  090%=      5-min Rain = 0
KAM3 191059Z 31012KT M03/M05 A302 RMK A01 T10331047  RH  090%=      5-min Rain = 0
KAM3 191100Z 31012KT M03/M05 A302 RMK A01 T10331047  RH  090%=      5-min Rain = 0
KAM3 191101Z 31011KT M03/M05 A302 RMK A01 T10331047  RH  090%=      5-min Rain = 0
KAM3 191102Z 31011KT M03/M05 A302 RMK A01 T10331047  RH  090%=      5-min Rain = 0
KAM3 191103Z 31011KT M03/M05 A302 RMK A01 T10331047  RH  090%=      5-min Rain = 0
KAM3 191104Z 31010KT M03/M05 A302 RMK A01 T10331047  RH  090%=      5-min Rain = 0
KAM3 191105Z 31011KT M03/M05 A302 RMK A01 T10331048  RH  090%=      5-min Rain = 0
KAM3 191106Z 31009KT M03/M05 A302 RMK A01 T10331048  RH  090%=      5-min Rain = 0
KAM3 191107Z 31010KT M03/M05 A302 RMK A01 T10331048  RH  089%=      5-min Rain = 0
KAM3 191108Z 31010KT M03/M05 A302 RMK A01 T10331048  RH  090%=      5-min Rain = 0
KAM3 191109Z 31009KT M03/M05 A302 RMK A01 T10331047  RH  090%=      5-min Rain = 0
KAM3 191110Z 31009KT M03/M05 A302 RMK A01 T10341048  RH  090%=      5-min Rain = 0
KAM3 191111Z 31009KT M03/M05 A302 RMK A01 T10341048  RH  090%=      5-min Rain = 0
KAM3 191112Z 31009KT M03/M05 A302 RMK A01 T10341048  RH  090%=      5-min Rain = 0
KAM3 191113Z 31009KT M03/M05 A302 RMK A01 T10341048  RH  090%=      5-min Rain = 0
KAM3 191114Z 31009KT M04/M05 A302 RMK A01 T10351049  RH  090%=      5-min Rain = 0
KAM3 191115Z 31009KT M04/M05 A302 RMK A01 T10351049  RH  090%=      5-min Rain = 0
KAM3 191116Z 30011KT M04/M05 A302 RMK A01 T10351049  RH  090%=      5-min Rain = 0
KAM3 191117Z 31009KT M04/M05 A302 RMK A01 T10351049  RH  090%=      5-min Rain = 0
KAM3 191118Z 31010KT M04/M05 A302 RMK A01 T10361049  RH  090%=      5-min Rain = 0
KAM3 191119Z 31011KT M04/M05 A302 RMK A01 T10361049  RH  091%=      5-min Rain = 0
KAM3 191120Z 31011KT M04/M05 A302 RMK A01 T10351048  RH  091%=      5-min Rain = 0
KAM3 191121Z 31010KT M04/M05 A302 RMK A01 T10351048  RH  090%=      5-min Rain = 0
KAM3 191122Z 31012KT M04/M05 A302 RMK A01 T10351049  RH  090%=      5-min Rain = 0
KAM3 191123Z 31013KT M04/M05 A302 RMK A01 T10351049  RH  090%=      5-min Rain = 0
KAM3 191124Z 30011KT M04/M05 A302 RMK A01 T10351049  RH  090%=      5-min Rain = 0
KAM3 191125Z 30012KT M04/M05 A302 RMK A01 T10351049  RH  090%=      5-min Rain = 0
KAM3 191126Z 31012KT M04/M05 A302 RMK A01 T10351049  RH  090%=      5-min Rain = 0
KAM3 191127Z 31010KT M04/M05 A302 RMK A01 T10351049  RH  090%=      5-min Rain = 0
KAM3 191128Z 31011KT M04/M05 A302 RMK A01 T10351050  RH  090%=      5-min Rain = 0
KAM3 191129Z 31012KT M04/M05 A302 RMK A01 T10361050  RH  090%=      5-min Rain = 0
KAM3 191130Z 31012KT M04/M05 A302 RMK A01 T10361050  RH  090%=      5-min Rain = 0
KAM3 191131Z 31010KT M04/M05 A302 RMK A01 T10361050  RH  090%=      5-min Rain = 0
KAM3 191132Z 31012KT M04/M05 A302 RMK A01 T10351049  RH  090%=      5-min Rain = 0
KAM3 191133Z 31011KT M04/M05 A302 RMK A01 T10361049  RH  090%=      5-min Rain = 0
KAM3 191134Z 31011KT M04/M05 A302 RMK A01 T10361050  RH  090%=      5-min Rain = 0
KAM3 191135Z 31012KT M04/M05 A302 RMK A01 T10361051  RH  090%=      5-min Rain = 0
KAM3 191136Z 31011KT M04/M05 A302 RMK A01 T10371050  RH  090%=      5-min Rain = 0
KAM3 191137Z 31011KT M04/M05 A302 RMK A01 T10361050  RH  090%=      5-min Rain = 0
KAM3 191138Z 31011KT M04/M05 A302 RMK A01 T10371050  RH  090%=      5-min Rain = 0
KAM3 191139Z 31011KT M04/M05 A302 RMK A01 T10371051  RH  090%=      5-min Rain = 0
KAM3 191140Z 31011KT M04/M05 A302 RMK A01 T10371051  RH  090%=      5-min Rain = 0
KAM3 191141Z 31011KT M04/M05 A302 RMK A01 T10371050  RH  091%=      5-min Rain = 0
KAM3 191142Z 31010KT M04/M05 A302 RMK A01 T10381051  RH  091%=      5-min Rain = 0
KAM3 191143Z 31011KT M04/M05 A302 RMK A01 T10381051  RH  090%=      5-min Rain = 0
KAM3 191144Z 31010KT M04/M05 A302 RMK A01 T10381051  RH  091%=      5-min Rain = 0
KAM3 191145Z 31010KT M04/M05 A302 RMK A01 T10381051  RH  091%=      5-min Rain = 0
KAM3 191146Z 31009KT M04/M05 A302 RMK A01 T10381051  RH  091%=      5-min Rain = 0
KAM3 191147Z 31011KT M04/M05 A302 RMK A01 T10391052  RH  091%=      5-min Rain = 0
KAM3 191148Z 31011KT M04/M05 A302 RMK A01 T10391051  RH  091%=      5-min Rain = 0
KAM3 191149Z 31011KT M04/M05 A302 RMK A01 T10391051  RH  092%=      5-min Rain = 0
KAM3 191150Z 31010KT M04/M05 A302 RMK A01 T10391051  RH  092%=      5-min Rain = 0
KAM3 191151Z 31010KT M04/M05 A302 RMK A01 T10391051  RH  091%=      5-min Rain = 0
KAM3 191152Z 31010KT M04/M05 A302 RMK A01 T10391052  RH  091%=      5-min Rain = 0
KAM3 191153Z 31010KT M04/M05 A302 RMK A01 T10401052  RH  091%=      5-min Rain = 0
KAM3 191154Z 31010KT M04/M05 A302 RMK A01 T10401052  RH  092%=      5-min Rain = 0
KAM3 191155Z 31010KT M04/M05 A302 RMK A01 T10401051  RH  092%=      5-min Rain = 0
KAM3 191156Z 31010KT M04/M05 A302 RMK A01 T10401051  RH  092%=      5-min Rain = 0
KAM3 191157Z 31009KT M04/M05 A302 RMK A01 T10401051  RH  092%=      5-min Rain = 0
KAM3 191158Z 31009KT M04/M05 A302 RMK A01 T10401052  RH  092%=      5-min Rain = 0
KAM3 191159Z 31009KT M04/M05 A302 RMK A01 T10411052  RH  092%=      5-min Rain = 0
KAM3 191200Z 31009KT M04/M05 A302 RMK A01 T10411052  RH  092%=      5-min Rain = 0
KAM3 191201Z 31009KT M04/M05 A302 RMK A01 T10411053  RH  092%=      5-min Rain = 0
KAM3 191202Z 31009KT M04/M05 A302 RMK A01 T10411053  RH  092%=      5-min Rain = 0
KAM3 191203Z 31009KT M04/M05 A3021 RMK A01 T10421053  RH  092%=      5-min Rain = 0
KAM3 191204Z 31010KT M04/M05 A3021 RMK A01 T10431054  RH  092%=      5-min Rain = 0
KAM3 191205Z 31009KT M04/M05 A3021 RMK A01 T10431053  RH  093%=      5-min Rain = 0
KAM3 191206Z 31009KT M04/M05 A3021 RMK A01 T10421053  RH  093%=      5-min Rain = 0
KAM3 191207Z 31009KT M04/M05 A3021 RMK A01 T10431053  RH  093%=      5-min Rain = 0
KAM3 191208Z 31009KT M04/M05 A3021 RMK A01 T10431053  RH  093%=      5-min Rain = 0
KAM3 191209Z 32008KT M04/M05 A3021 RMK A01 T10431053  RH  093%=      5-min Rain = 0
KAM3 191210Z 32008KT M04/M05 A3021 RMK A01 T10431052  RH  093%=      5-min Rain = 0
KAM3 191211Z 32008KT M04/M05 A3021 RMK A01 T10431053  RH  092%=      5-min Rain = 0
KAM3 191212Z 32008KT M04/M05 A3021 RMK A01 T10441054  RH  092%=      5-min Rain = 0
KAM3 191213Z 32007KT M04/M05 A3021 RMK A01 T10441054  RH  093%=      5-min Rain = 0
KAM3 191214Z 32008KT M04/M05 A3021 RMK A01 T10441054  RH  093%=      5-min Rain = 0
KAM3 191215Z 32007KT M05/M06 A3021 RMK A01 T10451055  RH  093%=      5-min Rain = 0
KAM3 191216Z 32007KT M05/M06 A3021 RMK A01 T10451055  RH  093%=      5-min Rain = 0
KAM3 191217Z 32007KT M05/M06 A3021 RMK A01 T10461056  RH  093%=      5-min Rain = 0
KAM3 191218Z 32006KT M05/M06 A3021 RMK A01 T10471056  RH  093%=      5-min Rain = 0
KAM3 191219Z 32007KT M05/M06 A3021 RMK A01 T10471057  RH  093%=      5-min Rain = 0
KAM3 191220Z 32006KT M05/M06 A3021 RMK A01 T10481058  RH  093%=      5-min Rain = 0
KAM3 191221Z 32007KT M05/M06 A3021 RMK A01 T10491058  RH  093%=      5-min Rain = 0
KAM3 191222Z 32007KT M05/M06 A3021 RMK A01 T10501058  RH  094%=      5-min Rain = 0
KAM3 191223Z 32006KT M05/M06 A3021 RMK A01 T10501057  RH  094%=      5-min Rain = 0
KAM3 191224Z 32006KT M05/M06 A3021 RMK A01 T10501058  RH  095%=      5-min Rain = 0
KAM3 191225Z 32006KT M05/M06 A3021 RMK A01 T10511058  RH  095%=      5-min Rain = 0
KAM3 191226Z 32006KT M05/M06 A3021 RMK A01 T10511058  RH  095%=      5-min Rain = 0
KAM3 191227Z 33006KT M05/M06 A3022 RMK A01 T10521059  RH  095%=      5-min Rain = 0
KAM3 191228Z 33007KT M05/M06 A3022 RMK A01 T10531059  RH  096%=      5-min Rain = 0
KAM3 191229Z 33006KT M05/M06 A3022 RMK A01 T10531059  RH  096%=      5-min Rain = 0
KAM3 191230Z 33006KT M05/M06 A3022 RMK A01 T10531059  RH  096%=      5-min Rain = 0
KAM3 191231Z 33006KT M05/M06 A3022 RMK A01 T10541060  RH  096%=      5-min Rain = 0
KAM3 191232Z 33006KT M06/M06 A3022 RMK A01 T10551061  RH  096%=      5-min Rain = 0
KAM3 191233Z 34006KT M06/M06 A3022 RMK A01 T10561061  RH  096%=      5-min Rain = 0
KAM3 191234Z 34006KT M06/M06 A3022 RMK A01 T10571063  RH  096%=      5-min Rain = 0
KAM3 191235Z 34006KT M06/M06 A3022 RMK A01 T10581063  RH  096%=      5-min Rain = 0
KAM3 191236Z 34006KT M06/M06 A3022 RMK A01 T10591063  RH  097%=      5-min Rain = 0
KAM3 191237Z 34007KT M06/M06 A3022 RMK A01 T10591062  RH  097%=      5-min Rain = 0
KAM3 191238Z 34006KT M06/M06 A3022 RMK A01 T10591062  RH  098%=      5-min Rain = 0
KAM3 191239Z 34006KT M06/M06 A3022 RMK A01 T10591061  RH  099%=      5-min Rain = 0
KAM3 191240Z 34006KT M06/M06 A3022 RMK A01 T10591060  RH  099%=      5-min Rain = 0
KAM3 191241Z 34006KT M06/M06 A3022 RMK A01 T10591060  RH  099%=      5-min Rain = 0
KAM3 191242Z 34006KT M06/M06 A3022 RMK A01 T10591060  RH  100%=      5-min Rain = 0
KAM3 191243Z 34006KT M06/M06 A3022 RMK A01 T10591059  RH  100%=      5-min Rain = 0
KAM3 191244Z 34006KT M06/M06 A3023 RMK A01 T10591060  RH  100%=      5-min Rain = 0
KAM3 191245Z 35006KT M06/M06 A3023 RMK A01 T10591059  RH  100%=      5-min Rain = 0
KAM3 191246Z 35006KT M06/M06 A3023 RMK A01 T10591060  RH  100%=      5-min Rain = 0
KAM3 191247Z 34006KT M06/M06 A3023 RMK A01 T10601060  RH  100%=      5-min Rain = 0
KAM3 191248Z 35006KT M06/M06 A3023 RMK A01 T10591059  RH  100%=      5-min Rain = 0
KAM3 191249Z 35006KT M06/M06 A3023 RMK A01 T10591059  RH  100%=      5-min Rain = 0
KAM3 191250Z 34005KT M06/M06 A3023 RMK A01 T10601060  RH  100%=      5-min Rain = 0
KAM3 191251Z 35005KT M06/M06 A3023 RMK A01 T10601060  RH  100%=      5-min Rain = 0
KAM3 191252Z 35005KT M06/M06 A3023 RMK A01 T10601060  RH  100%=      5-min Rain = 0
KAM3 191253Z 35005KT M06/M06 A3023 RMK A01 T10601060  RH  100%=      5-min Rain = 0
KAM3 191254Z 00006KT M06/M06 A3024 RMK A01 T10601060  RH  100%=      5-min Rain = 0
KAM3 191255Z 36006KT M06/M06 A3024 RMK A01 T10601060  RH  100%=      5-min Rain = 0
KAM3 191256Z 35006KT M06/M06 A3024 RMK A01 T10591059  RH  100%=      5-min Rain = 0
KAM3 191257Z 35006KT M06/M06 A3024 RMK A01 T10581058  RH  100%=      5-min Rain = 0
KAM3 191258Z 35005KT M06/M06 A3024 RMK A01 T10581058  RH  100%=      5-min Rain = 0
KAM3 191259Z 35005KT M06/M06 A3024 RMK A01 T10581058  RH  100%=      5-min Rain = 0
KAM3 191300Z 35005KT M06/M06 A3024 RMK A01 T10581058  RH  100%=      5-min Rain = 0
KAM3 191301Z 35004KT M06/M06 A3024 RMK A01 T10581058  RH  100%=      5-min Rain = 0
KAM3 191302Z 35005KT M06/M06 A3024 RMK A01 T10581058  RH  100%=      5-min Rain = 0
KAM3 191303Z 35005KT M06/M06 A3024 RMK A01 T10571058  RH  100%=      5-min Rain = 0
KAM3 191304Z 35005KT M06/M06 A3024 RMK A01 T10581058  RH  100%=      5-min Rain = 0
KAM3 191305Z 35004KT M06/M06 A3024 RMK A01 T10581058  RH  100%=      5-min Rain = 0
KAM3 191306Z 35004KT M06/M06 A3024 RMK A01 T10581059  RH  100%=      5-min Rain = 0
KAM3 191307Z 00004KT M06/M06 A3024 RMK A01 T10591060  RH  100%=      5-min Rain = 0
KAM3 191308Z 01004KT M06/M06 A3024 RMK A01 T10601060  RH  100%=      5-min Rain = 0
KAM3 191309Z 02004KT M06/M06 A3024 RMK A01 T10601060  RH  100%=      5-min Rain = 0
KAM3 191310Z 02005KT M06/M06 A3024 RMK A01 T10611062  RH  099%=      5-min Rain = 0
KAM3 191311Z 01004KT M06/M06 A3024 RMK A01 T10621063  RH  099%=      5-min Rain = 0
KAM3 191312Z 35003KT M06/M06 A3024 RMK A01 T10611062  RH  100%=      5-min Rain = 0
KAM3 191313Z 01006KT M06/M06 A3024 RMK A01 T10611061  RH  100%=      5-min Rain = 0
KAM3 191314Z 02006KT M06/M06 A3025 RMK A01 T10611062  RH  100%=      5-min Rain = 0
KAM3 191315Z 01002KT M06/M06 A3024 RMK A01 T10621063  RH  100%=      5-min Rain = 0
KAM3 191316Z 01002KT M06/M06 A3024 RMK A01 T10621062  RH  100%=      5-min Rain = 0
KAM3 191317Z 03006KT M06/M06 A3024 RMK A01 T10611062  RH  100%=      5-min Rain = 0
KAM3 191318Z 03008KT M06/M06 A3025 RMK A01 T10611062  RH  100%=      5-min Rain = 0
KAM3 191319Z 03006KT M06/M06 A3024 RMK A01 T10631063  RH  099%=      5-min Rain = 0
KAM3 191320Z 03006KT M06/M06 A3024 RMK A01 T10631063  RH  100%=      5-min Rain = 0
KAM3 191321Z 02007KT M06/M06 A3025 RMK A01 T10621062  RH  100%=      5-min Rain = 0
KAM3 191322Z 02007KT M06/M06 A3025 RMK A01 T10621062  RH  100%=      5-min Rain = 0
KAM3 191323Z 02006KT M06/M06 A3025 RMK A01 T10621062  RH  100%=      5-min Rain = 0
KAM3 191324Z 01006KT M06/M06 A3025 RMK A01 T10611061  RH  100%=      5-min Rain = 0
KAM3 191325Z 01006KT M06/M06 A3025 RMK A01 T10611061  RH  100%=      5-min Rain = 0
KAM3 191326Z 02007KT M06/M06 A3025 RMK A01 T10611061  RH  100%=      5-min Rain = 0
KAM3 191327Z 03007KT M06/M06 A3025 RMK A01 T10621064  RH  099%=      5-min Rain = 0
KAM3 191328Z 02007KT M06/M06 A3025 RMK A01 T10631064  RH  099%=      5-min Rain = 0
KAM3 191329Z 02006KT M06/M06 A3025 RMK A01 T10621063  RH  099%=      5-min Rain = 0
KAM3 191330Z 02006KT M06/M06 A3025 RMK A01 T10621063  RH  100%=      5-min Rain = 0
KAM3 191331Z 02007KT M06/M06 A3025 RMK A01 T10621063  RH  099%=      5-min Rain = 0
KAM3 191332Z 03007KT M06/M06 A3025 RMK A01 T10621064  RH  099%=      5-min Rain = 0
KAM3 191333Z 02006KT M06/M06 A3025 RMK A01 T10631064  RH  099%=      5-min Rain = 0
KAM3 191334Z 02005KT M06/M06 A3025 RMK A01 T10621063  RH  099%=      5-min Rain = 0
KAM3 191335Z 02006KT M06/M06 A3025 RMK A01 T10621062  RH  100%=      5-min Rain = 0
KAM3 191336Z 02006KT M06/M06 A3025 RMK A01 T10611062  RH  099%=      5-min Rain = 0
KAM3 191337Z 02006KT M06/M06 A3025 RMK A01 T10611063  RH  099%=      5-min Rain = 0
KAM3 191338Z 02005KT M06/M07 A3025 RMK A01 T10621065  RH  098%=      5-min Rain = 0
KAM3 191339Z 01005KT M06/M07 A3025 RMK A01 T10631066  RH  098%=      5-min Rain = 0
KAM3 191340Z 01006KT M06/M07 A3026 RMK A01 T10631065  RH  098%=      5-min Rain = 0
KAM3 191341Z 01006KT M06/M07 A3026 RMK A01 T10631065  RH  099%=      5-min Rain = 0
KAM3 191342Z 02006KT M06/M06 A3026 RMK A01 T10621064  RH  099%=      5-min Rain = 0
KAM3 191343Z 01005KT M06/M06 A3026 RMK A01 T10621063  RH  099%=      5-min Rain = 0
KAM3 191344Z 02004KT M06/M06 A3026 RMK A01 T10611063  RH  099%=      5-min Rain = 0
KAM3 191345Z 02005KT M06/M06 A3026 RMK A01 T10611063  RH  099%=      5-min Rain = 0
KAM3 191346Z 02005KT M06/M06 A3026 RMK A01 T10611063  RH  099%=      5-min Rain = 0
KAM3 191347Z 02004KT M06/M06 A3026 RMK A01 T10611062  RH  099%=      5-min Rain = 0
KAM3 191348Z 02004KT M06/M06 A3026 RMK A01 T10601061  RH  100%=      5-min Rain = 0
KAM3 191349Z 03005KT M06/M06 A3026 RMK A01 T10601060  RH  100%=      5-min Rain = 0
KAM3 191350Z 03005KT M06/M06 A3026 RMK A01 T10601061  RH  099%=      5-min Rain = 0
KAM3 191351Z 03005KT M06/M06 A3026 RMK A01 T10601062  RH  099%=      5-min Rain = 0
KAM3 191352Z 03005KT M06/M06 A3026 RMK A01 T10611063  RH  098%=      5-min Rain = 0
KAM3 191353Z 03005KT M06/M06 A3026 RMK A01 T10611063  RH  098%=      5-min Rain = 0
KAM3 191354Z 03007KT M06/M06 A3026 RMK A01 T10611064  RH  098%=      5-min Rain = 0
KAM3 191355Z 03007KT M06/M07 A3026 RMK A01 T10611065  RH  098%=      5-min Rain = 0
KAM3 191356Z 03006KT M06/M07 A3027 RMK A01 T10621065  RH  097%=      5-min Rain = 0
KAM3 191357Z 03005KT M06/M06 A3027 RMK A01 T10621064  RH  098%=      5-min Rain = 0
KAM3 191358Z 03005KT M06/M06 A3027 RMK A01 T10611062  RH  099%=      5-min Rain = 0
KAM3 191359Z 02005KT M06/M06 A3027 RMK A01 T10601062  RH  099%=      5-min Rain = 0
KAM3 191400Z 02005KT M06/M06 A3027 RMK A01 T10601062  RH  099%=      5-min Rain = 0
KAM3 191401Z 02004KT M06/M06 A3027 RMK A01 T10601062  RH  098%=      5-min Rain = 0
KAM3 191402Z 02006KT M06/M06 A3027 RMK A01 T10601063  RH  098%=      5-min Rain = 0
KAM3 191403Z 02006KT M06/M06 A3027 RMK A01 T10601064  RH  098%=      5-min Rain = 0
KAM3 191404Z 02006KT M06/M07 A3027 RMK A01 T10611065  RH  097%=      5-min Rain = 0
KAM3 191405Z 02005KT M06/M07 A3027 RMK A01 T10611066  RH  097%=      5-min Rain = 0
KAM3 191406Z 02005KT M06/M07 A3028 RMK A01 T10621066  RH  097%=      5-min Rain = 0
KAM3 191407Z 02005KT M06/M07 A3028 RMK A01 T10621066  RH  097%=      5-min Rain = 0
KAM3 191408Z 01006KT M06/M07 A3028 RMK A01 T10621066  RH  097%=      5-min Rain = 0
KAM3 191409Z 01006KT M06/M07 A3028 RMK A01 T10621066  RH  097%=      5-min Rain = 0
KAM3 191410Z 01005KT M06/M07 A3028 RMK A01 T10621066  RH  097%=      5-min Rain = 0
KAM3 191411Z 01005KT M06/M07 A3028 RMK A01 T10621067  RH  096%=      5-min Rain = 0
KAM3 191412Z 02006KT M06/M07 A3028 RMK A01 T10621067  RH  096%=      5-min Rain = 0
KAM3 191413Z 02007KT M06/M07 A3028 RMK A01 T10621067  RH  096%=      5-min Rain = 0
KAM3 191414Z 01005KT M06/M07 A3028 RMK A01 T10621066  RH  097%=      5-min Rain = 0
KAM3 191415Z 01005KT M06/M07 A3028 RMK A01 T10611065  RH  097%=      5-min Rain = 0
KAM3 191416Z 01005KT M06/M06 A3028 RMK A01 T10601064  RH  097%=      5-min Rain = 0
KAM3 191417Z 02006KT M06/M06 A3028 RMK A01 T10591062  RH  098%=      5-min Rain = 0
KAM3 191418Z 02007KT M06/M06 A3028 RMK A01 T10581061  RH  098%=      5-min Rain = 0
KAM3 191419Z 01006KT M06/M06 A3028 RMK A01 T10571061  RH  097%=      5-min Rain = 0
KAM3 191420Z 01005KT M06/M06 A3028 RMK A01 T10561059  RH  098%=      5-min Rain = 0
KAM3 191421Z 02005KT M06/M06 A3028 RMK A01 T10551059  RH  097%=      5-min Rain = 0
KAM3 191422Z 02008KT M06/M06 A3028 RMK A01 T10551059  RH  097%=      5-min Rain = 0
KAM3 191423Z 02008KT M05/M06 A3028 RMK A01 T10541059  RH  096%=      5-min Rain = 0
KAM3 191424Z 02006KT M05/M06 A3028 RMK A01 T10531058  RH  097%=      5-min Rain = 0
KAM3 191425Z 01005KT M05/M06 A3028 RMK A01 T10521056  RH  097%=      5-min Rain = 0
KAM3 191426Z 01005KT M05/M06 A3029 RMK A01 T10501055  RH  097%=      5-min Rain = 0
KAM3 191427Z 02007KT M05/M06 A3029 RMK A01 T10501055  RH  096%=      5-min Rain = 0
KAM3 191428Z 03008KT M05/M06 A3029 RMK A01 T10501056  RH  095%=      5-min Rain = 0
KAM3 191429Z 02005KT M05/M06 A3029 RMK A01 T10501057  RH  095%=      5-min Rain = 0
KAM3 191430Z 02005KT M05/M06 A3029 RMK A01 T10491056  RH  095%=      5-min Rain = 0
KAM3 191431Z 03006KT M05/M06 A3029 RMK A01 T10481056  RH  095%=      5-min Rain = 0
KAM3 191432Z 02008KT M05/M06 A3029 RMK A01 T10481055  RH  095%=      5-min Rain = 0
KAM3 191433Z 02006KT M05/M06 A3029 RMK A01 T10481055  RH  094%=      5-min Rain = 0
KAM3 191434Z 02006KT M05/M05 A3029 RMK A01 T10471054  RH  095%=      5-min Rain = 0
KAM3 191435Z 02005KT M05/M05 A3029 RMK A01 T10461053  RH  095%=      5-min Rain = 0
KAM3 191436Z 03006KT M05/M05 A3029 RMK A01 T10451052  RH  095%=      5-min Rain = 0
KAM3 191437Z 02006KT M05/M05 A3029 RMK A01 T10451052  RH  095%=      5-min Rain = 0
KAM3 191438Z 02005KT M04/M05 A3029 RMK A01 T10441051  RH  095%=      5-min Rain = 0
KAM3 191439Z 03005KT M04/M05 A3029 RMK A01 T10441051  RH  095%=      5-min Rain = 0
KAM3 191440Z 03005KT M04/M05 A3029 RMK A01 T10421049  RH  095%=      5-min Rain = 0
KAM3 191441Z 03006KT M04/M05 A3029 RMK A01 T10421049  RH  095%=      5-min Rain = 0
KAM3 191442Z 03006KT M04/M05 A3029 RMK A01 T10411049  RH  094%=      5-min Rain = 0
KAM3 191443Z 04006KT M04/M05 A3029 RMK A01 T10401048  RH  094%=      5-min Rain = 0
KAM3 191444Z 04006KT M04/M05 A3029 RMK A01 T10391047  RH  094%=      5-min Rain = 0
KAM3 191445Z 03007KT M04/M05 A3029 RMK A01 T10381047  RH  093%=      5-min Rain = 0
KAM3 191446Z 04006KT M04/M05 A3029 RMK A01 T10371048  RH  093%=      5-min Rain = 0
KAM3 191447Z 04007KT M04/M05 A3029 RMK A01 T10371047  RH  093%=      5-min Rain = 0
KAM3 191448Z 04007KT M04/M05 A3029 RMK A01 T10361046  RH  093%=      5-min Rain = 0
KAM3 191449Z 04007KT M04/M05 A3029 RMK A01 T10351045  RH  093%=      5-min Rain = 0
KAM3 191450Z 03007KT M04/M05 A303 RMK A01 T10351045  RH  092%=      5-min Rain = 0
KAM3 191451Z 03007KT M03/M05 A303 RMK A01 T10341046  RH  092%=      5-min Rain = 0
KAM3 191452Z 03006KT M03/M05 A303 RMK A01 T10341047  RH  091%=      5-min Rain = 0
KAM3 191453Z 03007KT M03/M05 A303 RMK A01 T10341047  RH  091%=      5-min Rain = 0
KAM3 191454Z 02007KT M03/M05 A303 RMK A01 T10331047  RH  090%=      5-min Rain = 0
KAM3 191455Z 03007KT M03/M05 A303 RMK A01 T10331047  RH  090%=      5-min Rain = 0
KAM3 191456Z 03007KT M03/M05 A303 RMK A01 T10321046  RH  090%=      5-min Rain = 0
KAM3 191457Z 02006KT M03/M05 A303 RMK A01 T10321046  RH  090%=      5-min Rain = 0
KAM3 191458Z 02008KT M03/M05 A303 RMK A01 T10311046  RH  090%=      5-min Rain = 0
KAM3 191459Z 02007KT M03/M05 A303 RMK A01 T10311047  RH  089%=      5-min Rain = 0
KAM3 191500Z 02007KT M03/M05 A303 RMK A01 T10311046  RH  089%=      5-min Rain = 0
KAM3 191501Z 02006KT M03/M04 A303 RMK A01 T10301043  RH  090%=      5-min Rain = 0
KAM3 191502Z 02007KT M03/M04 A3031 RMK A01 T10291043  RH  090%=      5-min Rain = 0
KAM3 191503Z 02007KT M03/M04 A3031 RMK A01 T10291044  RH  089%=      5-min Rain = 0
KAM3 191504Z 02006KT M03/M04 A3031 RMK A01 T10291044  RH  089%=      5-min Rain = 0
KAM3 191505Z 02006KT M03/M04 A3031 RMK A01 T10281043  RH  089%=      5-min Rain = 0
KAM3 191506Z 02006KT M03/M05 A3031 RMK A01 T10281045  RH  088%=      5-min Rain = 0
KAM3 191507Z 02006KT M03/M05 A3031 RMK A01 T10281045  RH  088%=      5-min Rain = 0
KAM3 191508Z 02007KT M03/M04 A3031 RMK A01 T10281044  RH  089%=      5-min Rain = 0
KAM3 191509Z 02006KT M03/M04 A3031 RMK A01 T10281044  RH  089%=      5-min Rain = 0
KAM3 191510Z 02006KT M03/M04 A3031 RMK A01 T10261042  RH  089%=      5-min Rain = 0
KAM3 191511Z 02007KT M03/M04 A3031 RMK A01 T10261043  RH  088%=      5-min Rain = 0
KAM3 191512Z 02007KT M03/M04 A3031 RMK A01 T10261043  RH  088%=      5-min Rain = 0
KAM3 191513Z 03007KT M03/M04 A3031 RMK A01 T10251041  RH  088%=      5-min Rain = 0
KAM3 191514Z 03007KT M03/M04 A3031 RMK A01 T10251042  RH  088%=      5-min Rain = 0
KAM3 191515Z 02008KT M02/M04 A3031 RMK A01 T10241041  RH  088%=      5-min Rain = 0
KAM3 191516Z 02008KT M02/M04 A3031 RMK A01 T10231041  RH  087%=      5-min Rain = 0
KAM3 191517Z 02007KT M02/M04 A3031 RMK A01 T10231041  RH  087%=      5-min Rain = 0
KAM3 191518Z 03008KT M02/M04 A3031 RMK A01 T10211039  RH  088%=      5-min Rain = 0
KAM3 191519Z 02009KT M02/M04 A3031 RMK A01 T10201039  RH  087%=      5-min Rain = 0
KAM3 191520Z 02009KT M02/M04 A3031 RMK A01 T10191038  RH  087%=      5-min Rain = 0
KAM3 191521Z 02009KT M02/M04 A3031 RMK A01 T10171037  RH  087%=      5-min Rain = 0
KAM3 191522Z 02010KT M02/M04 A3031 RMK A01 T10151035  RH  086%=      5-min Rain = 0
KAM3 191523Z 02012KT M02/M04 A3031 RMK A01 T10151037  RH  085%=      5-min Rain = 0
KAM3 191524Z 02012KT M02/M04 A3031 RMK A01 T10151040  RH  083%=      5-min Rain = 0
KAM3 191525Z 02011KT M01/M04 A3031 RMK A01 T10141040  RH  083%=      5-min Rain = 0
KAM3 191526Z 02010KT M01/M04 A3031 RMK A01 T10141040  RH  083%=      5-min Rain = 0
KAM3 191527Z 02011KT M01/M04 A3031 RMK A01 T10141040  RH  082%=      5-min Rain = 0
KAM3 191528Z 02011KT M01/M04 A3031 RMK A01 T10131039  RH  082%=      5-min Rain = 0
KAM3 191529Z 02011KT M01/M04 A3031 RMK A01 T10131041  RH  082%=      5-min Rain = 0
KAM3 191530Z 02012KT M01/M04 A3031 RMK A01 T10131041  RH  081%=      5-min Rain = 0
KAM3 191531Z 02010KT M01/M04 A3031 RMK A01 T10131042  RH  080%=      5-min Rain = 0
KAM3 191532Z 01010KT M01/M04 A3031 RMK A01 T10121042  RH  080%=      5-min Rain = 0
KAM3 191533Z 01011KT M01/M04 A3032 RMK A01 T10121042  RH  080%=      5-min Rain = 0
KAM3 191534Z 01010KT M01/M04 A3032 RMK A01 T10111040  RH  080%=      5-min Rain = 0
KAM3 191535Z 01008KT M01/M04 A3032 RMK A01 T10101039  RH  081%=      5-min Rain = 0
KAM3 191536Z 02009KT M01/M04 A3032 RMK A01 T10081037  RH  081%=      5-min Rain = 0
KAM3 191537Z 01010KT M01/M04 A3032 RMK A01 T10081040  RH  079%=      5-min Rain = 0
KAM3 191538Z 01009KT M01/M04 A3032 RMK A01 T10081041  RH  079%=      5-min Rain = 0
KAM3 191539Z 01009KT M01/M04 A3032 RMK A01 T10081041  RH  078%=      5-min Rain = 0
KAM3 191540Z 01012KT M01/M04 A3032 RMK A01 T10081042  RH  078%=      5-min Rain = 0
KAM3 191541Z 01011KT M01/M04 A3032 RMK A01 T10081042  RH  078%=      5-min Rain = 0
KAM3 191542Z 35011KT M01/M04 A3032 RMK A01 T10091042  RH  078%=      5-min Rain = 0
KAM3 191543Z 00012KT M01/M04 A3032 RMK A01 T10081040  RH  078%=      5-min Rain = 0
KAM3 191544Z 01011KT M01/M04 A3032 RMK A01 T10081041  RH  078%=      5-min Rain = 0
KAM3 191545Z 01010KT M01/M04 A3032 RMK A01 T10081043  RH  077%=      5-min Rain = 0
KAM3 191546Z 01011KT M01/M04 A3032 RMK A01 T10081042  RH  078%=      5-min Rain = 0
KAM3 191547Z 01011KT M01/M04 A3032 RMK A01 T10071041  RH  078%=      5-min Rain = 0
KAM3 191548Z 00012KT M01/M04 A3032 RMK A01 T10071042  RH  077%=      5-min Rain = 0
KAM3 191549Z 00014KT M01/M04 A3032 RMK A01 T10071041  RH  077%=      5-min Rain = 0
KAM3 191550Z 36014KT M01/M04 A3032 RMK A01 T10071043  RH  077%=      5-min Rain = 0
KAM3 191551Z 36012KT M01/M04 A3032 RMK A01 T10071044  RH  076%=      5-min Rain = 0
KAM3 191552Z 36013KT M01/M04 A3032 RMK A01 T10071042  RH  077%=      5-min Rain = 0
KAM3 191553Z 35013KT M01/M04 A3032 RMK A01 T10071042  RH  077%=      5-min Rain = 0
KAM3 191554Z 35012KT M01/M04 A3032 RMK A01 T10061041  RH  077%=      5-min Rain = 0
KAM3 191555Z 36014KT M01/M04 A3032 RMK A01 T10051040  RH  077%=      5-min Rain = 0
KAM3 191556Z 36014KT M01/M04 A3032 RMK A01 T10051041  RH  077%=      5-min Rain = 0
KAM3 191557Z 36015KT M01/M04 A3032 RMK A01 T10051042  RH  076%=      5-min Rain = 0
KAM3 191558Z 36014KT M01/M04 A3032 RMK A01 T10071044  RH  076%=      5-min Rain = 0
KAM3 191559Z 00014KT M01/M04 A3032 RMK A01 T10071043  RH  077%=      5-min Rain = 0
KAM3 191600Z 01013KT M01/M04 A3032 RMK A01 T10071043  RH  077%=      5-min Rain = 0
KAM3 191601Z 01015KT M01/M04 A3032 RMK A01 T10071043  RH  077%=      5-min Rain = 0
KAM3 191602Z 00014KT M01/M04 A3033 RMK A01 T10081043  RH  077%=      5-min Rain = 0
KAM3 191603Z 00014KT M01/M04 A3033 RMK A01 T10081042  RH  077%=      5-min Rain = 0
KAM3 191604Z 00014KT M01/M04 A3033 RMK A01 T10071041  RH  078%=      5-min Rain = 0
KAM3 191605Z 36012KT M01/M04 A3033 RMK A01 T10071042  RH  077%=      5-min Rain = 0
KAM3 191606Z 35015KT M01/M04 A3033 RMK A01 T10071041  RH  078%=      5-min Rain = 0
KAM3 191607Z 36012KT M01/M04 A3033 RMK A01 T10071041  RH  077%=      5-min Rain = 0
KAM3 191608Z 01014KT M01/M04 A3033 RMK A01 T10051039  RH  078%=      5-min Rain = 0
KAM3 191609Z 01015KT M01/M04 A3033 RMK A01 T10051041  RH  076%=      5-min Rain = 0
KAM3 191610Z 00014KT M01/M04 A3033 RMK A01 T10061043  RH  076%=      5-min Rain = 0
KAM3 191611Z 01013KT M01/M04 A3033 RMK A01 T10061043  RH  076%=      5-min Rain = 0
KAM3 191612Z 02012KT M01/M04 A3033 RMK A01 T10071043  RH  076%=      5-min Rain = 0
KAM3 191613Z 01013KT M01/M04 A3033 RMK A01 T10061042  RH  077%=      5-min Rain = 0
KAM3 191614Z 00012KT M01/M04 A3033 RMK A01 T10061043  RH  076%=      5-min Rain = 0
KAM3 191615Z 35011KT M01/M04 A3033 RMK A01 T10061042  RH  076%=      5-min Rain = 0
KAM3 191616Z 36012KT M01/M04 A3033 RMK A01 T10061043  RH  076%=      5-min Rain = 0
KAM3 191617Z 00013KT M00/M04 A3034 RMK A01 T10041041  RH  076%=      5-min Rain = 0
KAM3 191618Z 00013KT M00/M04 A3034 RMK A01 T10041043  RH  075%=      5-min Rain = 0
KAM3 191619Z 00014KT M01/M04 A3033 RMK A01 T10051043  RH  075%=      5-min Rain = 0
KAM3 191620Z 36013KT M01/M04 A3033 RMK A01 T10051043  RH  076%=      5-min Rain = 0
KAM3 191621Z 00013KT M01/M04 A3033 RMK A01 T10051043  RH  075%=      5-min Rain = 0
KAM3 191622Z 36012KT M01/M04 A3034 RMK A01 T10051043  RH  075%=      5-min Rain = 0
KAM3 191623Z 36012KT M00/M04 A3033 RMK A01 T10041043  RH  075%=      5-min Rain = 0
KAM3 191624Z 35011KT M00/M04 A3033 RMK A01 T10041043  RH  075%=      5-min Rain = 0
KAM3 191625Z 35010KT M00/M04 A3033 RMK A01 T10031041  RH  075%=      5-min Rain = 0
KAM3 191626Z 01014KT M00/M04 A3033 RMK A01 T10021040  RH  076%=      5-min Rain = 0
KAM3 191627Z 36013KT M00/M04 A3034 RMK A01 T10011040  RH  075%=      5-min Rain = 0
KAM3 191628Z 36012KT M00/M04 A3034 RMK A01 T10011041  RH  075%=      5-min Rain = 0
KAM3 191629Z 01013KT M00/M04 A3034 RMK A01 T10021042  RH  075%=      5-min Rain = 0
KAM3 191630Z 36012KT M00/M04 A3034 RMK A01 T10011041  RH  075%=      5-min Rain = 0
KAM3 191631Z 00014KT M00/M04 A3034 RMK A01 T10011041  RH  074%=      5-min Rain = 0
KAM3 191632Z 36012KT M00/M04 A3033 RMK A01 T10011042  RH  074%=      5-min Rain = 0
KAM3 191633Z 35011KT M00/M04 A3033 RMK A01 T10011041  RH  075%=      5-min Rain = 0
KAM3 191634Z 35010KT M00/M04 A3033 RMK A01 T10011040  RH  075%=      5-min Rain = 0
KAM3 191635Z 01012KT 00/M04 A3033 RMK A01 T00021036  RH  076%=      5-min Rain = 0
KAM3 191636Z 01012KT 00/M04 A3034 RMK A01 T00031038  RH  074%=      5-min Rain = 0
KAM3 191637Z 01011KT 00/M04 A3034 RMK A01 T00031038  RH  074%=      5-min Rain = 0
KAM3 191638Z 00011KT 00/M04 A3034 RMK A01 T00021039  RH  074%=      5-min Rain = 0
KAM3 191639Z 35014KT 00/M04 A3034 RMK A01 T00021038  RH  074%=      5-min Rain = 0
KAM3 191640Z 34013KT 00/M04 A3034 RMK A01 T00021042  RH  073%=      5-min Rain = 0
KAM3 191641Z 35012KT 00/04 A3034 RMK A01 T00-00-43  RH  073%=      5-min Rain = 0
KAM3 191642Z 35011KT 00/04 A3034 RMK A01 T00000-40  RH  074%=      5-min Rain = 0
KAM3 191643Z 36013KT 00/M04 A3033 RMK A01 T00011039  RH  074%=      5-min Rain = 0
KAM3 191644Z 00013KT 00/04 A3033 RMK A01 T00000-41  RH  074%=      5-min Rain = 0
KAM3 191645Z 01012KT 00/04 A3034 RMK A01 T00-00-41  RH  074%=      5-min Rain = 0
KAM3 191646Z 36010KT 00/04 A3034 RMK A01 T00-00-40  RH  074%=      5-min Rain = 0
KAM3 191647Z 01010KT 00/M04 A3034 RMK A01 T00021037  RH  075%=      5-min Rain = 0
KAM3 191648Z 00011KT 00/M04 A3033 RMK A01 T00011040  RH  074%=      5-min Rain = 0
KAM3 191649Z 35013KT 00/M04 A3034 RMK A01 T00021039  RH  074%=      5-min Rain = 0
KAM3 191650Z 34009KT 00/M04 A3033 RMK A01 T00031039  RH  074%=      5-min Rain = 0
KAM3 191651Z 34013KT 00/M04 A3034 RMK A01 T00031039  RH  073%=      5-min Rain = 0
KAM3 191652Z 34012KT 00/M04 A3033 RMK A01 T00031039  RH  073%=      5-min Rain = 0
KAM3 191653Z 35012KT 00/M04 A3034 RMK A01 T00031039  RH  074%=      5-min Rain = 0
KAM3 191654Z 35011KT 01/M04 A3034 RMK A01 T00051036  RH  074%=      5-min Rain = 0
KAM3 191655Z 35010KT 01/M04 A3034 RMK A01 T00051039  RH  072%=      5-min Rain = 0
KAM3 191656Z 36015KT 01/M04 A3034 RMK A01 T00051038  RH  073%=      5-min Rain = 0
KAM3 191657Z 35012KT 00/M04 A3034 RMK A01 T00041040  RH  072%=      5-min Rain = 0
KAM3 191658Z 35012KT 00/M04 A3034 RMK A01 T00021041  RH  073%=      5-min Rain = 0
KAM3 191659Z 00009KT 00/04 A3034 RMK A01 T00000-43  RH  073%=      5-min Rain = 0
KAM3 191700Z 36010KT M00/M04 A3034 RMK A01 T10011042  RH  074%=      5-min Rain = 0
KAM3 191701Z 35014KT 00/M04 A3034 RMK A01 T00021037  RH  075%=      5-min Rain = 0
KAM3 191702Z 36013KT 00/M04 A3034 RMK A01 T00021040  RH  073%=      5-min Rain = 0
KAM3 191703Z 35011KT 00/M04 A3034 RMK A01 T00021039  RH  074%=      5-min Rain = 0
KAM3 191704Z 36011KT 00/M04 A3034 RMK A01 T00031037  RH  074%=      5-min Rain = 0
KAM3 191705Z 36012KT 01/M04 A3034 RMK A01 T00051038  RH  073%=      5-min Rain = 0
KAM3 191706Z 01012KT 00/M04 A3034 RMK A01 T00041039  RH  073%=      5-min Rain = 0
KAM3 191707Z 00011KT 00/M04 A3034 RMK A01 T00041040  RH  073%=      5-min Rain = 0
KAM3 191708Z 35013KT 00/M04 A3034 RMK A01 T00021041  RH  073%=      5-min Rain = 0
KAM3 191709Z 35013KT 00/M04 A3034 RMK A01 T00041039  RH  073%=      5-min Rain = 0
KAM3 191710Z 36012KT 00/M04 A3034 RMK A01 T00041040  RH  072%=      5-min Rain = 0
KAM3 191711Z 00013KT 00/M04 A3034 RMK A01 T00031042  RH  072%=      5-min Rain = 0
KAM3 191712Z 00013KT 00/M04 A3034 RMK A01 T00011044  RH  072%=      5-min Rain = 0
KAM3 191713Z 00015KT 00/04 A3034 RMK A01 T00000-42  RH  073%=      5-min Rain = 0
KAM3 191714Z 00012KT 00/M04 A3034 RMK A01 T00011041  RH  073%=      5-min Rain = 0
KAM3 191715Z 35012KT 00/M04 A3034 RMK A01 T00011041  RH  073%=      5-min Rain = 0
KAM3 191716Z 35011KT 00/M04 A3034 RMK A01 T00031038  RH  074%=      5-min Rain = 0
KAM3 191717Z 35013KT 01/M04 A3034 RMK A01 T00061037  RH  073%=      5-min Rain = 0
KAM3 191718Z 34011KT 01/M04 A3034 RMK A01 T00061039  RH  072%=      5-min Rain = 0
KAM3 191719Z 35011KT 01/M04 A3034 RMK A01 T00051039  RH  072%=      5-min Rain = 0
KAM3 191720Z 34013KT 01/M04 A3034 RMK A01 T00071037  RH  072%=      5-min Rain = 0
KAM3 191721Z 34011KT 01/M04 A3035 RMK A01 T00061040  RH  071%=      5-min Rain = 0
KAM3 191722Z 34009KT 01/M04 A3035 RMK A01 T00051040  RH  072%=      5-min Rain = 0
KAM3 191723Z 36011KT 01/M04 A3034 RMK A01 T00061038  RH  072%=      5-min Rain = 0
KAM3 191724Z 35012KT 01/M04 A3034 RMK A01 T00071037  RH  072%=      5-min Rain = 0
KAM3 191725Z 36013KT 01/M04 A3034 RMK A01 T00081036  RH  072%=      5-min Rain = 0
KAM3 191726Z 36012KT 01/M04 A3034 RMK A01 T00081039  RH  071%=      5-min Rain = 0
KAM3 191727Z 36011KT 01/M04 A3034 RMK A01 T00051041  RH  071%=      5-min Rain = 0
KAM3 191728Z 33011KT 01/M04 A3034 RMK A01 T00061038  RH  072%=      5-min Rain = 0
KAM3 191729Z 34012KT 01/M04 A3034 RMK A01 T00081037  RH  072%=      5-min Rain = 0
KAM3 191730Z 35010KT 01/M04 A3034 RMK A01 T00081038  RH  071%=      5-min Rain = 0
KAM3 191731Z 00011KT 01/M04 A3034 RMK A01 T00091035  RH  072%=      5-min Rain = 0
KAM3 191732Z 35012KT 01/M04 A3034 RMK A01 T00121036  RH  071%=      5-min Rain = 0
KAM3 191733Z 34012KT 01/M04 A3034 RMK A01 T00111038  RH  070%=      5-min Rain = 0
KAM3 191734Z 33013KT 01/M04 A3034 RMK A01 T00091040  RH  070%=      5-min Rain = 0
KAM3 191735Z 35013KT 01/M04 A3034 RMK A01 T00081039  RH  071%=      5-min Rain = 0
KAM3 191736Z 34012KT 01/M04 A3034 RMK A01 T00101037  RH  071%=      5-min Rain = 0
KAM3 191737Z 35009KT 01/M04 A3034 RMK A01 T00091038  RH  071%=      5-min Rain = 0
KAM3 191738Z 35009KT 01/M04 A3034 RMK A01 T00111035  RH  071%=      5-min Rain = 0
KAM3 191739Z 35010KT 01/M04 A3034 RMK A01 T00101039  RH  070%=      5-min Rain = 0
KAM3 191740Z 00008KT 01/M04 A3034 RMK A01 T00111036  RH  071%=      5-min Rain = 0
KAM3 191741Z 35010KT 01/M04 A3034 RMK A01 T00131035  RH  070%=      5-min Rain = 0
KAM3 191742Z 00011KT 02/M03 A3034 RMK A01 T00161034  RH  070%=      5-min Rain = 0
KAM3 191743Z 36011KT 02/M04 A3034 RMK A01 T00161036  RH  068%=      5-min Rain = 0
KAM3 191744Z 35011KT 01/M04 A3034 RMK A01 T00141038  RH  068%=      5-min Rain = 0
KAM3 191745Z 35012KT 01/M04 A3034 RMK A01 T00131037  RH  069%=      5-min Rain = 0
KAM3 191746Z 36009KT 01/M04 A3034 RMK A01 T00141038  RH  069%=      5-min Rain = 0
KAM3 191747Z 36010KT 01/M04 A3034 RMK A01 T00131037  RH  069%=      5-min Rain = 0
KAM3 191748Z 00007KT 01/M04 A3034 RMK A01 T00141037  RH  069%=      5-min Rain = 0
KAM3 191749Z 35008KT 01/M04 A3034 RMK A01 T00131038  RH  069%=      5-min Rain = 0
KAM3 191750Z 35009KT 01/M04 A3034 RMK A01 T00141035  RH  070%=      5-min Rain = 0
KAM3 191751Z 35009KT 01/M04 A3034 RMK A01 T00141036  RH  069%=      5-min Rain = 0
KAM3 191752Z 01012KT 02/M03 A3034 RMK A01 T00161034  RH  069%=      5-min Rain = 0
KAM3 191753Z 35010KT 02/M04 A3034 RMK A01 T00151037  RH  068%=      5-min Rain = 0
KAM3 191754Z 35009KT 02/M03 A3034 RMK A01 T00161034  RH  069%=      5-min Rain = 0
KAM3 191755Z 34010KT 02/M03 A3034 RMK A01 T00181033  RH  069%=      5-min Rain = 0
KAM3 191756Z 34008KT 02/M03 A3034 RMK A01 T00201034  RH  067%=      5-min Rain = 0
KAM3 191757Z 00010KT 02/M04 A3034 RMK A01 T00181037  RH  067%=      5-min Rain = 0
KAM3 191758Z 01010KT 02/M03 A3034 RMK A01 T00191033  RH  068%=      5-min Rain = 0
KAM3 191759Z 36012KT 02/M03 A3034 RMK A01 T00191034  RH  068%=      5-min Rain = 0
KAM3 191800Z 34009KT 02/M04 A3034 RMK A01 T00181036  RH  067%=      5-min Rain = 0
KAM3 191801Z 34008KT 02/M03 A3034 RMK A01 T00181034  RH  068%=      5-min Rain = 0
KAM3 191802Z 01009KT 02/M03 A3034 RMK A01 T00211031  RH  068%=      5-min Rain = 0
KAM3 191803Z 00007KT 02/M04 A3034 RMK A01 T00211035  RH  067%=      5-min Rain = 0
KAM3 191804Z 00009KT 02/M04 A3034 RMK A01 T00181035  RH  068%=      5-min Rain = 0
KAM3 191805Z 01011KT 02/M03 A3034 RMK A01 T00211032  RH  068%=      5-min Rain = 0
KAM3 191806Z 00011KT 02/M03 A3034 RMK A01 T00231032  RH  067%=      5-min Rain = 0
KAM3 191807Z 36011KT 02/M04 A3034 RMK A01 T00211035  RH  066%=      5-min Rain = 0
KAM3 191808Z 36008KT 02/M03 A3034 RMK A01 T00201034  RH  067%=      5-min Rain = 0
KAM3 191809Z 36008KT 02/M03 A3034 RMK A01 T00211033  RH  068%=      5-min Rain = 0
KAM3 191810Z 01008KT 02/M03 A3034 RMK A01 T00221032  RH  067%=      5-min Rain = 0
KAM3 191811Z 02010KT 02/M03 A3034 RMK A01 T00241032  RH  066%=      5-min Rain = 0
KAM3 191812Z 02008KT 02/M03 A3033 RMK A01 T00231034  RH  066%=      5-min Rain = 0
KAM3 191813Z 00008KT 02/M03 A3033 RMK A01 T00231033  RH  067%=      5-min Rain = 0
KAM3 191814Z 33009KT 03/M03 A3033 RMK A01 T00251031  RH  067%=      5-min Rain = 0
KAM3 191815Z 33007KT 03/M03 A3033 RMK A01 T00251033  RH  065%=      5-min Rain = 0
KAM3 191816Z 35005KT 02/M03 A3033 RMK A01 T00241033  RH  066%=      5-min Rain = 0
KAM3 191817Z 36009KT 03/M03 A3033 RMK A01 T00281028  RH  067%=      5-min Rain = 0
KAM3 191818Z 35009KT 03/M03 A3033 RMK A01 T00311030  RH  065%=      5-min Rain = 0
KAM3 191819Z 35010G15KT 03/M03 A3033 RMK A01 T00301033  RH  064%=      5-min Rain = 0
KAM3 191820Z 00010KT 03/M03 A3033 RMK A01 T00271033  RH  064%=      5-min Rain = 0
KAM3 191821Z 35013KT 03/M03 A3033 RMK A01 T00261034  RH  065%=      5-min Rain = 0
KAM3 191822Z 35011KT 03/M03 A3033 RMK A01 T00271033  RH  065%=      5-min Rain = 0
KAM3 191823Z 35008KT 03/M04 A3033 RMK A01 T00251035  RH  065%=      5-min Rain = 0
KAM3 191824Z 34007KT 02/M04 A3032 RMK A01 T00231035  RH  066%=      5-min Rain = 0
KAM3 191825Z 36009G14KT 02/M03 A3032 RMK A01 T00231032  RH  067%=      5-min Rain = 0
KAM3 191826Z 00011KT 03/M03 A3032 RMK A01 T00261032  RH  066%=      5-min Rain = 0
KAM3 191827Z 35007KT 02/M03 A3032 RMK A01 T00231034  RH  066%=      5-min Rain = 0
KAM3 191828Z 01011KT 02/M03 A3032 RMK A01 T00231032  RH  067%=      5-min Rain = 0
KAM3 191829Z 01011KT 02/M03 A3032 RMK A01 T00241032  RH  066%=      5-min Rain = 0
KAM3 191830Z 36011KT 03/M03 A3032 RMK A01 T00251032  RH  066%=      5-min Rain = 0
KAM3 191831Z 01008KT 03/M03 A3032 RMK A01 T00261031  RH  066%=      5-min Rain = 0
KAM3 191832Z 00011KT 03/M03 A3032 RMK A01 T00281030  RH  066%=      5-min Rain = 0
KAM3 191833Z 35012KT 03/M03 A3032 RMK A01 T00291030  RH  065%=      5-min Rain = 0
KAM3 191834Z 36011KT 03/M03 A3032 RMK A01 T00301030  RH  065%=      5-min Rain = 0
KAM3 191835Z 34010KT 03/M03 A3032 RMK A01 T00301031  RH  064%=      5-min Rain = 0
KAM3 191836Z 34010KT 03/M03 A3032 RMK A01 T00291031  RH  064%=      5-min Rain = 0
KAM3 191837Z 34010KT 03/M03 A3032 RMK A01 T00301030  RH  065%=      5-min Rain = 0
KAM3 191838Z 35007KT 03/M03 A3032 RMK A01 T00291031  RH  065%=      5-min Rain = 0
KAM3 191839Z 00006KT 03/M03 A3032 RMK A01 T00321027  RH  065%=      5-min Rain = 0
KAM3 191840Z 35010KT 04/M03 A3031 RMK A01 T00351026  RH  064%=      5-min Rain = 0
KAM3 191841Z 00013KT 04/M03 A3031 RMK A01 T00391026  RH  063%=      5-min Rain = 0
KAM3 191842Z 34012KT 04/M03 A3031 RMK A01 T00371030  RH  062%=      5-min Rain = 0
KAM3 191843Z 01009KT 04/M03 A3031 RMK A01 T00351029  RH  063%=      5-min Rain = 0
KAM3 191844Z 00012KT 04/M03 A3031 RMK A01 T00371028  RH  063%=      5-min Rain = 0
KAM3 191845Z 00011KT 04/M03 A3031 RMK A01 T00361030  RH  062%=      5-min Rain = 0
KAM3 191846Z 35010KT 04/M03 A3031 RMK A01 T00351029  RH  063%=      5-min Rain = 0
KAM3 191847Z 36008KT 04/M03 A3031 RMK A01 T00361028  RH  063%=      5-min Rain = 0
KAM3 191848Z 36007KT 04/M03 A3031 RMK A01 T00361030  RH  062%=      5-min Rain = 0
KAM3 191849Z 00012KT 04/M03 A3031 RMK A01 T00371026  RH  063%=      5-min Rain = 0
KAM3 191850Z 00011KT 04/M03 A3031 RMK A01 T00401026  RH  062%=      5-min Rain = 0
KAM3 191851Z 35012KT 04/M03 A3031 RMK A01 T00421027  RH  061%=      5-min Rain = 0
KAM3 191852Z 35008KT 04/M03 A3031 RMK A01 T00411028  RH  061%=      5-min Rain = 0
KAM3 191853Z 34008G13KT 04/M03 A3031 RMK A01 T00411027  RH  061%=      5-min Rain = 0
KAM3 191854Z 35012KT 04/M03 A3031 RMK A01 T00411027  RH  061%=      5-min Rain = 0
KAM3 191855Z 35011KT 04/M03 A3031 RMK A01 T00411029  RH  061%=      5-min Rain = 0
KAM3 191856Z 35010KT 04/M03 A3031 RMK A01 T00381030  RH  061%=      5-min Rain = 0
KAM3 191857Z 34008KT 04/M03 A3031 RMK A01 T00381028  RH  062%=      5-min Rain = 0
KAM3 191858Z 34009KT 04/M03 A3031 RMK A01 T00401025  RH  063%=      5-min Rain = 0
KAM3 191859Z 34009KT 04/M02 A3031 RMK A01 T00441023  RH  062%=      5-min Rain = 0
KAM3 191900Z 36007KT 04/M03 A3031 RMK A01 T00441026  RH  060%=      5-min Rain = 0
KAM3 191901Z 36009KT 05/M03 A3031 RMK A01 T00451025  RH  061%=      5-min Rain = 0
KAM3 191902Z 00010KT 05/M03 A3031 RMK A01 T00461025  RH  060%=      5-min Rain = 0
KAM3 191903Z 34010KT 05/M03 A3031 RMK A01 T00461025  RH  060%=      5-min Rain = 0
KAM3 191904Z 00009KT 04/M03 A3031 RMK A01 T00441027  RH  060%=      5-min Rain = 0
KAM3 191905Z 01010KT 04/M03 A3031 RMK A01 T00421027  RH  061%=      5-min Rain = 0
KAM3 191906Z 01010KT 04/M03 A3031 RMK A01 T00441025  RH  061%=      5-min Rain = 0
KAM3 191907Z 00011KT 05/M03 A3031 RMK A01 T00451026  RH  060%=      5-min Rain = 0
KAM3 191908Z 34010KT 05/M02 A3031 RMK A01 T00471024  RH  060%=      5-min Rain = 0
KAM3 191909Z 33011KT 05/M03 A303 RMK A01 T00471026  RH  059%=      5-min Rain = 0
KAM3 191910Z 36010KT 05/M03 A3031 RMK A01 T00471025  RH  059%=      5-min Rain = 0
KAM3 191911Z 35010KT 05/M03 A3031 RMK A01 T00451027  RH  060%=      5-min Rain = 0
KAM3 191912Z 35008KT 05/M03 A303 RMK A01 T00451026  RH  060%=      5-min Rain = 0
KAM3 191913Z 35010KT 05/M03 A303 RMK A01 T00461025  RH  060%=      5-min Rain = 0
KAM3 191914Z 35010KT 05/M03 A303 RMK A01 T00471025  RH  060%=      5-min Rain = 0
KAM3 191915Z 34011KT 05/M03 A303 RMK A01 T00481026  RH  059%=      5-min Rain = 0
KAM3 191916Z 33009KT 05/M03 A303 RMK A01 T00461027  RH  059%=      5-min Rain = 0
KAM3 191917Z 32008KT 05/M03 A303 RMK A01 T00461025  RH  060%=      5-min Rain = 0
KAM3 191918Z 34008KT 05/M02 A303 RMK A01 T00471024  RH  060%=      5-min Rain = 0
KAM3 191919Z 35010KT 05/M02 A303 RMK A01 T00511021  RH  060%=      5-min Rain = 0
KAM3 191920Z 35011KT 06/M02 A303 RMK A01 T00561021  RH  058%=      5-min Rain = 0
KAM3 191921Z 35011KT 06/M03 A303 RMK A01 T00551026  RH  056%=      5-min Rain = 0
KAM3 191922Z 34010KT 05/M03 A303 RMK A01 T00521027  RH  057%=      5-min Rain = 0
KAM3 191923Z 33011KT 05/M02 A303 RMK A01 T00521024  RH  058%=      5-min Rain = 0
KAM3 191924Z 33009KT 06/M02 A303 RMK A01 T00551023  RH  057%=      5-min Rain = 0
KAM3 191925Z 32011KT 05/M03 A303 RMK A01 T00541025  RH  057%=      5-min Rain = 0
KAM3 191926Z 33009KT 06/M02 A303 RMK A01 T00581020  RH  057%=      5-min Rain = 0
KAM3 191927Z 33009KT 06/M02 A303 RMK A01 T00631020  RH  055%=      5-min Rain = 0
KAM3 191928Z 32009KT 06/M02 A3029 RMK A01 T00641022  RH  054%=      5-min Rain = 0
KAM3 191929Z 33008KT 06/M02 A3029 RMK A01 T00611024  RH  054%=      5-min Rain = 0
KAM3 191930Z 35011KT 06/M02 A3029 RMK A01 T00591024  RH  055%=      5-min Rain = 0
KAM3 191931Z 34010KT 06/M02 A3029 RMK A01 T00581024  RH  056%=      5-min Rain = 0
KAM3 191932Z 35009KT 06/M03 A3029 RMK A01 T00551026  RH  056%=      5-min Rain = 0
KAM3 191933Z 36009KT 05/M03 A3029 RMK A01 T00541025  RH  057%=      5-min Rain = 0
KAM3 191934Z 35014KT 06/M02 A3029 RMK A01 T00591021  RH  057%=      5-min Rain = 0
KAM3 191935Z 35014KT 06/M02 A3029 RMK A01 T00611024  RH  055%=      5-min Rain = 0
KAM3 191936Z 34014KT 06/M03 A3029 RMK A01 T00591025  RH  055%=      5-min Rain = 0
KAM3 191937Z 35010KT 06/M03 A3029 RMK A01 T00581025  RH  055%=      5-min Rain = 0
KAM3 191938Z 35011KT 06/M02 A3029 RMK A01 T00591023  RH  056%=      5-min Rain = 0
KAM3 191939Z 34013KT 06/M02 A3029 RMK A01 T00601024  RH  055%=      5-min Rain = 0
KAM3 191940Z 34015KT 06/M03 A3029 RMK A01 T00601025  RH  054%=      5-min Rain = 0
KAM3 191941Z 34013KT 06/M03 A3029 RMK A01 T00591026  RH  054%=      5-min Rain = 0
KAM3 191942Z 34010KT 06/M03 A3029 RMK A01 T00581026  RH  055%=      5-min Rain = 0
KAM3 191943Z 34008KT 06/M02 A3028 RMK A01 T00581024  RH  056%=      5-min Rain = 0
KAM3 191944Z 35015KT 06/M02 A3028 RMK A01 T00601023  RH  055%=      5-min Rain = 0
KAM3 191945Z 34013KT 06/M03 A3028 RMK A01 T00601026  RH  054%=      5-min Rain = 0
KAM3 191946Z 34013KT 06/M02 A3028 RMK A01 T00611023  RH  055%=      5-min Rain = 0
KAM3 191947Z 34013KT 06/M02 A3028 RMK A01 T00631024  RH  054%=      5-min Rain = 0
KAM3 191948Z 34012KT 06/M03 A3028 RMK A01 T00621025  RH  054%=      5-min Rain = 0
KAM3 191949Z 33011G16KT 06/M02 A3028 RMK A01 T00631023  RH  054%=      5-min Rain = 0
KAM3 191950Z 33013KT 07/M02 A3028 RMK A01 T00661023  RH  053%=      5-min Rain = 0
KAM3 191951Z 34011KT 06/M03 A3028 RMK A01 T00631026  RH  053%=      5-min Rain = 0
KAM3 191952Z 33010KT 06/M03 A3028 RMK A01 T00591026  RH  054%=      5-min Rain = 0
KAM3 191953Z 36011KT 06/M02 A3028 RMK A01 T00591024  RH  055%=      5-min Rain = 0
KAM3 191954Z 01010KT 06/M02 A3028 RMK A01 T00601024  RH  055%=      5-min Rain = 0
KAM3 191955Z 35010KT 06/M02 A3028 RMK A01 T00601023  RH  055%=      5-min Rain = 0
KAM3 191956Z 36013KT 06/M02 A3028 RMK A01 T00631023  RH  054%=      5-min Rain = 0
KAM3 191957Z 36012KT 06/M02 A3028 RMK A01 T00631024  RH  054%=      5-min Rain = 0
KAM3 191958Z 00011KT 06/M02 A3028 RMK A01 T00641023  RH  053%=      5-min Rain = 0
KAM3 191959Z 00010KT 07/M02 A3028 RMK A01 T00651023  RH  053%=      5-min Rain = 0
KAM3 192000Z 34010KT 07/M02 A3027 RMK A01 T00651024  RH  053%=      5-min Rain = 0
KAM3 192001Z 34009KT 06/M03 A3027 RMK A01 T00641025  RH  053%=      5-min Rain = 0
KAM3 192002Z 34011G16KT 06/M03 A3027 RMK A01 T00621025  RH  054%=      5-min Rain = 0
KAM3 192003Z 33008KT 06/M02 A3027 RMK A01 T00621023  RH  054%=      5-min Rain = 0
KAM3 192004Z 34010KT 06/M02 A3027 RMK A01 T00641022  RH  054%=      5-min Rain = 0
KAM3 192005Z 00012KT 07/M02 A3027 RMK A01 T00681023  RH  052%=      5-min Rain = 0
KAM3 192006Z 34014KT 07/M03 A3027 RMK A01 T00681026  RH  051%=      5-min Rain = 0
KAM3 192007Z 35012KT 07/M03 A3027 RMK A01 T00681025  RH  052%=      5-min Rain = 0
KAM3 192008Z 35014KT 07/M02 A3027 RMK A01 T00691024  RH  052%=      5-min Rain = 0
KAM3 192009Z 35013KT 07/M03 A3027 RMK A01 T00681026  RH  051%=      5-min Rain = 0
KAM3 192010Z 34012KT 07/M03 A3027 RMK A01 T00651026  RH  052%=      5-min Rain = 0
KAM3 192011Z 33011KT 07/M02 A3027 RMK A01 T00651024  RH  053%=      5-min Rain = 0
KAM3 192012Z 33010KT 07/M02 A3027 RMK A01 T00651023  RH  053%=      5-min Rain = 0
KAM3 192013Z 33009KT 07/M02 A3027 RMK A01 T00661023  RH  053%=      5-min Rain = 0
KAM3 192014Z 34013KT 07/M02 A3027 RMK A01 T00691021  RH  053%=      5-min Rain = 0
KAM3 192015Z 35013KT 07/M02 A3027 RMK A01 T00701023  RH  051%=      5-min Rain = 0
KAM3 192016Z 34012G17KT 07/M02 A3026 RMK A01 T00701023  RH  051%=      5-min Rain = 0
KAM3 192017Z 34012G17KT 07/M02 A3026 RMK A01 T00711023  RH  051%=      5-min Rain = 0
KAM3 192018Z 34011KT 07/M02 A3026 RMK A01 T00701024  RH  051%=      5-min Rain = 0
KAM3 192019Z 32007KT 07/M03 A3026 RMK A01 T00681026  RH  051%=      5-min Rain = 0
KAM3 192020Z 33011KT 07/M02 A3026 RMK A01 T00671023  RH  053%=      5-min Rain = 0
KAM3 192021Z 33011KT 07/M02 A3026 RMK A01 T00691023  RH  052%=      5-min Rain = 0
KAM3 192022Z 33013KT 07/M02 A3026 RMK A01 T00711023  RH  051%=      5-min Rain = 0
KAM3 192023Z 34010KT 07/M02 A3026 RMK A01 T00711024  RH  051%=      5-min Rain = 0
KAM3 192024Z 34012KT 07/M02 A3026 RMK A01 T00721021  RH  051%=      5-min Rain = 0
KAM3 192025Z 34014KT 07/M02 A3026 RMK A01 T00741023  RH  050%=      5-min Rain = 0
KAM3 192026Z 35012KT 07/M03 A3026 RMK A01 T00731025  RH  050%=      5-min Rain = 0
KAM3 192027Z 36012KT 07/M02 A3026 RMK A01 T00721023  RH  051%=      5-min Rain = 0
KAM3 192028Z 35012KT 07/M02 A3026 RMK A01 T00721023  RH  051%=      5-min Rain = 0
KAM3 192029Z 35013KT 07/M03 A3026 RMK A01 T00721025  RH  050%=      5-min Rain = 0
KAM3 192030Z 34013KT 07/M03 A3026 RMK A01 T00711025  RH  050%=      5-min Rain = 0
KAM3 192031Z 34011KT 07/M02 A3026 RMK A01 T00711024  RH  051%=      5-min Rain = 0
KAM3 192032Z 32012KT 07/M02 A3026 RMK A01 T00731023  RH  051%=      5-min Rain = 0
KAM3 192033Z 32013KT 08/M02 A3026 RMK A01 T00761023  RH  050%=      5-min Rain = 0
KAM3 192034Z 32014KT 08/M03 A3026 RMK A01 T00751025  RH  049%=      5-min Rain = 0
KAM3 192035Z 31011KT 07/M03 A3026 RMK A01 T00741026  RH  049%=      5-min Rain = 0
KAM3 192036Z 32011KT 08/M02 A3026 RMK A01 T00751024  RH  049%=      5-min Rain = 0
KAM3 192037Z 32013KT 08/M02 A3026 RMK A01 T00781024  RH  049%=      5-min Rain = 0
KAM3 192038Z 35010KT 08/M03 A3026 RMK A01 T00761026  RH  049%=      5-min Rain = 0
KAM3 192039Z 36012KT 08/M02 A3026 RMK A01 T00761024  RH  049%=      5-min Rain = 0
KAM3 192040Z 34010KT 08/M02 A3026 RMK A01 T00751024  RH  049%=      5-min Rain = 0
KAM3 192041Z 34012KT 08/M02 A3026 RMK A01 T00751023  RH  050%=      5-min Rain = 0
KAM3 192042Z 33011KT 08/M02 A3026 RMK A01 T00761024  RH  049%=      5-min Rain = 0
KAM3 192043Z 32010KT 08/M03 A3026 RMK A01 T00771026  RH  048%=      5-min Rain = 0
KAM3 192044Z 33013KT 08/M03 A3026 RMK A01 T00771028  RH  047%=      5-min Rain = 0
KAM3 192045Z 34012KT 08/M03 A3026 RMK A01 T00771029  RH  047%=      5-min Rain = 0
KAM3 192046Z 34010KT 08/M03 A3026 RMK A01 T00781027  RH  047%=      5-min Rain = 0
KAM3 192047Z 32012KT 08/M03 A3026 RMK A01 T00781027  RH  048%=      5-min Rain = 0
KAM3 192048Z 32012KT 08/M03 A3025 RMK A01 T00771026  RH  048%=      5-min Rain = 0
KAM3 192049Z 34007KT 08/M03 A3025 RMK A01 T00771025  RH  049%=      5-min Rain = 0
KAM3 192050Z 35009KT 08/M02 A3025 RMK A01 T00811022  RH  048%=      5-min Rain = 0
KAM3 192051Z 33008KT 08/M02 A3025 RMK A01 T00821024  RH  047%=      5-min Rain = 0
KAM3 192052Z 33009KT 08/M03 A3025 RMK A01 T00801025  RH  047%=      5-min Rain = 0
KAM3 192053Z 34012KT 08/M03 A3025 RMK A01 T00811025  RH  047%=      5-min Rain = 0
KAM3 192054Z 35011KT 08/M03 A3025 RMK A01 T00831027  RH  046%=      5-min Rain = 0
KAM3 192055Z 34010KT 08/M03 A3025 RMK A01 T00811028  RH  046%=      5-min Rain = 0
KAM3 192056Z 33008KT 08/M03 A3025 RMK A01 T00821026  RH  046%=      5-min Rain = 0
KAM3 192057Z 33011KT 09/M03 A3025 RMK A01 T00861027  RH  045%=      5-min Rain = 0
KAM3 192058Z 32011KT 09/M03 A3025 RMK A01 T00851030  RH  044%=      5-min Rain = 0
KAM3 192059Z 32012KT 08/M03 A3025 RMK A01 T00831029  RH  045%=      5-min Rain = 0
KAM3 192100Z 33009KT 08/M03 A3025 RMK A01 T00821028  RH  046%=      5-min Rain = 0
KAM3 192101Z 34012KT 08/M03 A3025 RMK A01 T00811026  RH  047%=      5-min Rain = 0
KAM3 192102Z 33012KT 08/M03 A3025 RMK A01 T00791026  RH  047%=      5-min Rain = 0
KAM3 192103Z 33012KT 08/M03 A3025 RMK A01 T00791026  RH  047%=      5-min Rain = 0
KAM3 192104Z 33011KT 08/M03 A3025 RMK A01 T00811028  RH  046%=      5-min Rain = 0
KAM3 192105Z 33010KT 08/M03 A3025 RMK A01 T00821029  RH  045%=      5-min Rain = 0
KAM3 192106Z 33010KT 08/M03 A3025 RMK A01 T00801030  RH  046%=      5-min Rain = 0
KAM3 192107Z 34010KT 08/M03 A3025 RMK A01 T00791028  RH  047%=      5-min Rain = 0
KAM3 192108Z 36014KT 08/M03 A3025 RMK A01 T00831032  RH  044%=      5-min Rain = 0
KAM3 192109Z 00013KT 08/M04 A3025 RMK A01 T00831036  RH  043%=      5-min Rain = 0
KAM3 192110Z 36013KT 08/M03 A3025 RMK A01 T00811034  RH  044%=      5-min Rain = 0
KAM3 192111Z 34013KT 08/M03 A3025 RMK A01 T00811031  RH  045%=      5-min Rain = 0
KAM3 192112Z 35011KT 08/M03 A3025 RMK A01 T00801032  RH  045%=      5-min Rain = 0
KAM3 192113Z 35013KT 08/M03 A3025 RMK A01 T00801032  RH  045%=      5-min Rain = 0
KAM3 192114Z 35012KT 08/M03 A3025 RMK A01 T00791033  RH  045%=      5-min Rain = 0
KAM3 192115Z 35010KT 08/M03 A3025 RMK A01 T00781032  RH  045%=      5-min Rain = 0
KAM3 192116Z 01011KT 08/M03 A3025 RMK A01 T00801031  RH  045%=      5-min Rain = 0
KAM3 192117Z 36008KT 08/M03 A3025 RMK A01 T00821031  RH  045%=      5-min Rain = 0
KAM3 192118Z 34012G17KT 08/M03 A3025 RMK A01 T00841031  RH  044%=      5-min Rain = 0
KAM3 192119Z 33011KT 09/M03 A3025 RMK A01 T00851031  RH  044%=      5-min Rain = 0
KAM3 192120Z 33009KT 08/M03 A3025 RMK A01 T00841032  RH  044%=      5-min Rain = 0
KAM3 192121Z 34009KT 08/M03 A3025 RMK A01 T00831031  RH  045%=      5-min Rain = 0
KAM3 192122Z 34012KT 09/M03 A3025 RMK A01 T00851032  RH  043%=      5-min Rain = 0
KAM3 192123Z 34011KT 09/M03 A3025 RMK A01 T00851033  RH  043%=      5-min Rain = 0
KAM3 192124Z 34009KT 09/M03 A3025 RMK A01 T00871031  RH  043%=      5-min Rain = 0
KAM3 192125Z 34013KT 09/M03 A3025 RMK A01 T00881033  RH  042%=      5-min Rain = 0
KAM3 192126Z 35010KT 09/M03 A3025 RMK A01 T00861034  RH  043%=      5-min Rain = 0
KAM3 192127Z 34011KT 09/M03 A3025 RMK A01 T00871030  RH  044%=      5-min Rain = 0
KAM3 192128Z 35011KT 09/M03 A3025 RMK A01 T00881032  RH  043%=      5-min Rain = 0
KAM3 192129Z 33011KT 09/M03 A3025 RMK A01 T00861034  RH  043%=      5-min Rain = 0
KAM3 192130Z 34010KT 09/M03 A3025 RMK A01 T00851031  RH  044%=      5-min Rain = 0
KAM3 192131Z 35011KT 09/M03 A3025 RMK A01 T00851032  RH  044%=      5-min Rain = 0
KAM3 192132Z 35011KT 08/M03 A3025 RMK A01 T00821033  RH  044%=      5-min Rain = 0
KAM3 192133Z 33009KT 08/M03 A3025 RMK A01 T00811032  RH  045%=      5-min Rain = 0
KAM3 192134Z 32011KT 08/M03 A3025 RMK A01 T00811031  RH  045%=      5-min Rain = 0
KAM3 192135Z 34011KT 08/M03 A3025 RMK A01 T00821033  RH  044%=      5-min Rain = 0
KAM3 192136Z 34011KT 08/M03 A3025 RMK A01 T00831032  RH  044%=      5-min Rain = 0
KAM3 192137Z 34012KT 08/M03 A3025 RMK A01 T00841034  RH  043%=      5-min Rain = 0
KAM3 192138Z 35012KT 08/M04 A3025 RMK A01 T00831037  RH  042%=      5-min Rain = 0
KAM3 192139Z 34012KT 08/M04 A3025 RMK A01 T00831038  RH  042%=      5-min Rain = 0
KAM3 192140Z 34010KT 08/M04 A3025 RMK A01 T00831039  RH  042%=      5-min Rain = 0
KAM3 192141Z 35012KT 08/M04 A3025 RMK A01 T00831038  RH  042%=      5-min Rain = 0
KAM3 192142Z 36011KT 08/M04 A3025 RMK A01 T00831036  RH  043%=      5-min Rain = 0
KAM3 192143Z 34009KT 08/M03 A3025 RMK A01 T00841034  RH  043%=      5-min Rain = 0
KAM3 192144Z 34009KT 08/M04 A3025 RMK A01 T00841035  RH  043%=      5-min Rain = 0
KAM3 192145Z 34009KT 08/M03 A3025 RMK A01 T00841034  RH  043%=      5-min Rain = 0
KAM3 192146Z 35008KT 08/M03 A3025 RMK A01 T00831034  RH  044%=      5-min Rain = 0
KAM3 192147Z 36007KT 08/M03 A3025 RMK A01 T00831032  RH  044%=      5-min Rain = 0
KAM3 192148Z 00007KT 08/M03 A3025 RMK A01 T00841033  RH  044%=      5-min Rain = 0
KAM3 192149Z 35008KT 08/M04 A3025 RMK A01 T00831035  RH  043%=      5-min Rain = 0
KAM3 192150Z 36010KT 08/M04 A3025 RMK A01 T00841036  RH  043%=      5-min Rain = 0
KAM3 192151Z 36010KT 09/M04 A3025 RMK A01 T00851035  RH  042%=      5-min Rain = 0
KAM3 192152Z 01011KT 09/M03 A3025 RMK A01 T00871034  RH  042%=      5-min Rain = 0
KAM3 192153Z 00010KT 09/M04 A3025 RMK A01 T00861035  RH  042%=      5-min Rain = 0
KAM3 192154Z 00010KT 09/M04 A3025 RMK A01 T00851035  RH  043%=      5-min Rain = 0
KAM3 192155Z 00010KT 08/M04 A3025 RMK A01 T00841035  RH  043%=      5-min Rain = 0
KAM3 192156Z 35010KT 09/M03 A3025 RMK A01 T00851033  RH  043%=      5-min Rain = 0
KAM3 192157Z 00010KT 09/M04 A3025 RMK A01 T00851035  RH  042%=      5-min Rain = 0
KAM3 192158Z 34007KT 08/M04 A3025 RMK A01 T00841035  RH  043%=      5-min Rain = 0
KAM3 192159Z 35005KT 08/M04 A3025 RMK A01 T00831036  RH  043%=      5-min Rain = 0
KAM3 192200Z 02008KT 08/M03 A3025 RMK A01 T00831034  RH  043%=      5-min Rain = 0
KAM3 192201Z 02007KT 08/M03 A3025 RMK A01 T00841034  RH  043%=      5-min Rain = 0
KAM3 192202Z 35008KT 08/M04 A3025 RMK A01 T00841035  RH  043%=      5-min Rain = 0
KAM3 192203Z 34010KT 09/M04 A3025 RMK A01 T00851037  RH  042%=      5-min Rain = 0
KAM3 192204Z 35008KT 09/M04 A3025 RMK A01 T00851037  RH  042%=      5-min Rain = 0
KAM3 192205Z 36008KT 09/M04 A3025 RMK A01 T00861035  RH  042%=      5-min Rain = 0
KAM3 192206Z 00005KT 09/M04 A3025 RMK A01 T00871036  RH  042%=      5-min Rain = 0
KAM3 192207Z 34007KT 09/M04 A3025 RMK A01 T00881035  RH  042%=      5-min Rain = 0
KAM3 192208Z 34007KT 09/M04 A3025 RMK A01 T00881035  RH  042%=      5-min Rain = 0
KAM3 192209Z 00009KT 09/M04 A3025 RMK A01 T00881035  RH  042%=      5-min Rain = 0
KAM3 192210Z 36005KT 09/M04 A3025 RMK A01 T00861037  RH  042%=      5-min Rain = 0
KAM3 192211Z 35006KT 09/M04 A3025 RMK A01 T00851036  RH  042%=      5-min Rain = 0
KAM3 192212Z 01008KT 09/M04 A3025 RMK A01 T00861036  RH  042%=      5-min Rain = 0
KAM3 192213Z 00007KT 09/M04 A3025 RMK A01 T00861039  RH  041%=      5-min Rain = 0
KAM3 192214Z 02006KT 09/M04 A3025 RMK A01 T00861039  RH  041%=      5-min Rain = 0
KAM3 192215Z 01007KT 09/M04 A3025 RMK A01 T00851040  RH  041%=      5-min Rain = 0
KAM3 192216Z 01009KT 08/M04 A3025 RMK A01 T00841040  RH  041%=      5-min Rain = 0
KAM3 192217Z 01012KT 08/M04 A3025 RMK A01 T00841040  RH  041%=      5-min Rain = 0
KAM3 192218Z 01010KT 08/M04 A3025 RMK A01 T00831039  RH  042%=      5-min Rain = 0
KAM3 192219Z 01009KT 08/M04 A3025 RMK A01 T00831039  RH  042%=      5-min Rain = 0
KAM3 192220Z 01007KT 08/M04 A3025 RMK A01 T00831040  RH  042%=      5-min Rain = 0
KAM3 192221Z 00007KT 08/M04 A3025 RMK A01 T00831040  RH  042%=      5-min Rain = 0
KAM3 192222Z 01008KT 08/M04 A3025 RMK A01 T00841038  RH  042%=      5-min Rain = 0
KAM3 192223Z 02007KT 09/M04 A3025 RMK A01 T00851039  RH  041%=      5-min Rain = 0
KAM3 192224Z 02009KT 09/M04 A3025 RMK A01 T00851040  RH  041%=      5-min Rain = 0
KAM3 192225Z 02009KT 08/M04 A3025 RMK A01 T00841040  RH  041%=      5-min Rain = 0
KAM3 192226Z 00008KT 08/M04 A3025 RMK A01 T00841040  RH  041%=      5-min Rain = 0
KAM3 192227Z 36006KT 08/M04 A3025 RMK A01 T00831040  RH  042%=      5-min Rain = 0
KAM3 192228Z 02006KT 08/M04 A3025 RMK A01 T00831039  RH  042%=      5-min Rain = 0
KAM3 192229Z 04006KT 08/M04 A3025 RMK A01 T00831039  RH  042%=      5-min Rain = 0
KAM3 192230Z 02006KT 08/M04 A3025 RMK A01 T00841039  RH  042%=      5-min Rain = 0
KAM3 192231Z 03008KT 08/M04 A3025 RMK A01 T00831039  RH  042%=      5-min Rain = 0
KAM3 192232Z 03007KT 08/M04 A3025 RMK A01 T00831039  RH  042%=      5-min Rain = 0
KAM3 192233Z 03007KT 08/M04 A3025 RMK A01 T00821040  RH  042%=      5-min Rain = 0
KAM3 192234Z 04007KT 08/M04 A3025 RMK A01 T00821040  RH  042%=      5-min Rain = 0
KAM3 192235Z 02006KT 08/M04 A3025 RMK A01 T00821039  RH  042%=      5-min Rain = 0
KAM3 192236Z 02007KT 08/M04 A3025 RMK A01 T00821039  RH  042%=      5-min Rain = 0
KAM3 192237Z 02008KT 08/M04 A3025 RMK A01 T00821039  RH  042%=      5-min Rain = 0
KAM3 192238Z 02007KT 08/M04 A3025 RMK A01 T00821039  RH  042%=      5-min Rain = 0
KAM3 192239Z 02008KT 08/M04 A3025 RMK A01 T00821038  RH  042%=      5-min Rain = 0
KAM3 192240Z 02008KT 08/M04 A3025 RMK A01 T00831039  RH  042%=      5-min Rain = 0
KAM3 192241Z 04009KT 08/M04 A3025 RMK A01 T00831039  RH  042%=      5-min Rain = 0
KAM3 192242Z 04009KT 08/M04 A3025 RMK A01 T00831039  RH  042%=      5-min Rain = 0
KAM3 192243Z 03008KT 08/M04 A3025 RMK A01 T00831040  RH  042%=      5-min Rain = 0
KAM3 192244Z 03006KT 08/M04 A3025 RMK A01 T00821039  RH  042%=      5-min Rain = 0
KAM3 192245Z 04007KT 08/M04 A3025 RMK A01 T00821039  RH  042%=      5-min Rain = 0
KAM3 192246Z 03005KT 08/M04 A3025 RMK A01 T00831038  RH  042%=      5-min Rain = 0
KAM3 192247Z 02005KT 08/M04 A3025 RMK A01 T00841038  RH  042%=      5-min Rain = 0
KAM3 192248Z 02008KT 08/M04 A3025 RMK A01 T00841039  RH  042%=      5-min Rain = 0
KAM3 192249Z 02007KT 08/M04 A3025 RMK A01 T00841038  RH  042%=      5-min Rain = 0
KAM3 192250Z 01007KT 08/M04 A3025 RMK A01 T00821039  RH  042%=      5-min Rain = 0
KAM3 192251Z 03007KT 08/M04 A3025 RMK A01 T00821039  RH  042%=      5-min Rain = 0
KAM3 192252Z 03007KT 08/M04 A3025 RMK A01 T00821039  RH  042%=      5-min Rain = 0
KAM3 192253Z 02005KT 08/M04 A3025 RMK A01 T00821039  RH  042%=      5-min Rain = 0
KAM3 192254Z 03007KT 08/M04 A3025 RMK A01 T00821039  RH  042%=      5-min Rain = 0
KAM3 192255Z 02005KT 08/M04 A3025 RMK A01 T00821039  RH  042%=      5-min Rain = 0
KAM3 192256Z 02006KT 08/M04 A3025 RMK A01 T00801039  RH  043%=      5-min Rain = 0
KAM3 192257Z 03007KT 08/M04 A3026 RMK A01 T00811038  RH  043%=      5-min Rain = 0
KAM3 192258Z 03006KT 08/M04 A3026 RMK A01 T00821038  RH  042%=      5-min Rain = 0
KAM3 192259Z 03005KT 08/M04 A3026 RMK A01 T00821039  RH  042%=      5-min Rain = 0
KAM3 192300Z 02005KT 08/M04 A3026 RMK A01 T00811039  RH  043%=      5-min Rain = 0
KAM3 192301Z 36006KT 08/M04 A3026 RMK A01 T00811038  RH  043%=      5-min Rain = 0
KAM3 192302Z 35005KT 08/M04 A3026 RMK A01 T00811038  RH  043%=      5-min Rain = 0
KAM3 192303Z 00006KT 08/M04 A3026 RMK A01 T00811038  RH  043%=      5-min Rain = 0
KAM3 192304Z 04006KT 08/M04 A3026 RMK A01 T00811038  RH  043%=      5-min Rain = 0
KAM3 192305Z 04007KT 08/M04 A3026 RMK A01 T00801039  RH  043%=      5-min Rain = 0
KAM3 192306Z 04006KT 08/M04 A3026 RMK A01 T00791040  RH  043%=      5-min Rain = 0
KAM3 192307Z 04006KT 08/M04 A3026 RMK A01 T00781039  RH  043%=      5-min Rain = 0
KAM3 192308Z 03006KT 08/M04 A3026 RMK A01 T00781039  RH  043%=      5-min Rain = 0
KAM3 192309Z 03007KT 08/M04 A3026 RMK A01 T00781039  RH  044%=      5-min Rain = 0
KAM3 192310Z 03007KT 08/M04 A3026 RMK A01 T00781038  RH  044%=      5-min Rain = 0
KAM3 192311Z 03006KT 08/M04 A3026 RMK A01 T00771039  RH  044%=      5-min Rain = 0
KAM3 192312Z 03005KT 08/M04 A3026 RMK A01 T00771039  RH  044%=      5-min Rain = 0
KAM3 192313Z 03005KT 08/M04 A3026 RMK A01 T00771038  RH  044%=      5-min Rain = 0
KAM3 192314Z 05005KT 08/M04 A3026 RMK A01 T00771038  RH  044%=      5-min Rain = 0
KAM3 192315Z 06005KT 08/M04 A3026 RMK A01 T00771038  RH  044%=      5-min Rain = 0
KAM3 192316Z 07005KT 08/M04 A3026 RMK A01 T00771039  RH  044%=      5-min Rain = 0
KAM3 192317Z 06005KT 08/M04 A3026 RMK A01 T00771038  RH  044%=      5-min Rain = 0
KAM3 192318Z 07005KT 08/M04 A3026 RMK A01 T00771039  RH  044%=      5-min Rain = 0
KAM3 192319Z 04005KT 08/M04 A3026 RMK A01 T00771038  RH  044%=      5-min Rain = 0
KAM3 192320Z 05005KT 08/M04 A3026 RMK A01 T00771038  RH  044%=      5-min Rain = 0
KAM3 192321Z 05005KT 08/M04 A3026 RMK A01 T00771038  RH  044%=      5-min Rain = 0
KAM3 192322Z 05006KT 08/M04 A3026 RMK A01 T00761038  RH  044%=      5-min Rain = 0
KAM3 192323Z 04006KT 08/M04 A3026 RMK A01 T00761038  RH  044%=      5-min Rain = 0
KAM3 192324Z 05006KT 08/M04 A3026 RMK A01 T00751038  RH  044%=      5-min Rain = 0
KAM3 192325Z 04007KT 08/M04 A3026 RMK A01 T00751038  RH  044%=      5-min Rain = 0
KAM3 192326Z 04006KT 07/M04 A3026 RMK A01 T00741039  RH  044%=      5-min Rain = 0
KAM3 192327Z 04005KT 07/M04 A3026 RMK A01 T00731040  RH  044%=      5-min Rain = 0
KAM3 192328Z 05005KT 07/M04 A3026 RMK A01 T00731040  RH  045%=      5-min Rain = 0
KAM3 192329Z 04005KT 07/M04 A3026 RMK A01 T00731040  RH  045%=      5-min Rain = 0
KAM3 192330Z 05005KT 07/M04 A3026 RMK A01 T00731040  RH  045%=      5-min Rain = 0
KAM3 192331Z 05005KT 07/M04 A3026 RMK A01 T00721040  RH  045%=      5-min Rain = 0
KAM3 192332Z 05005KT 07/M04 A3026 RMK A01 T00711041  RH  045%=      5-min Rain = 0
KAM3 192333Z 05006KT 07/M04 A3026 RMK A01 T00711041  RH  045%=      5-min Rain = 0
KAM3 192334Z 05005KT 07/M04 A3026 RMK A01 T00701041  RH  045%=      5-min Rain = 0
KAM3 192335Z 05005KT 07/M04 A3026 RMK A01 T00701041  RH  045%=      5-min Rain = 0
KAM3 192336Z 05005KT 07/M04 A3026 RMK A01 T00691042  RH  045%=      5-min Rain = 0
KAM3 192337Z 05005KT 07/M04 A3026 RMK A01 T00681042  RH  045%=      5-min Rain = 0
KAM3 192338Z 04006KT 07/M04 A3026 RMK A01 T00681041  RH  046%=      5-min Rain = 0
KAM3 192339Z 05006KT 07/M04 A3026 RMK A01 T00671042  RH  046%=      5-min Rain = 0
KAM3 192340Z 05006KT 07/M04 A3026 RMK A01 T00661041  RH  046%=      5-min Rain = 0
KAM3 192341Z 05005KT 07/M04 A3026 RMK A01 T00661041  RH  046%=      5-min Rain = 0
KAM3 192342Z 05005KT 06/M04 A3026 RMK A01 T00641042  RH  047%=      5-min Rain = 0
KAM3 192343Z 06005KT 06/M04 A3026 RMK A01 T00631042  RH  047%=      5-min Rain = 0
KAM3 192344Z 06005KT 06/M04 A3026 RMK A01 T00621042  RH  047%=      5-min Rain = 0
KAM3 192345Z 06005KT 06/M04 A3026 RMK A01 T00621043  RH  047%=      5-min Rain = 0
KAM3 192346Z 07005KT 06/M04 A3026 RMK A01 T00611043  RH  047%=      5-min Rain = 0
KAM3 192347Z 07006KT 06/M04 A3026 RMK A01 T00601044  RH  047%=      5-min Rain = 0
KAM3 192348Z 07006KT 06/M04 A3026 RMK A01 T00591044  RH  047%=      5-min Rain = 0
KAM3 192349Z 07006KT 06/M05 A3026 RMK A01 T00581045  RH  048%=      5-min Rain = 0
KAM3 192350Z 07006KT 06/M05 A3026 RMK A01 T00571045  RH  048%=      5-min Rain = 0
KAM3 192351Z 07006KT 06/M05 A3026 RMK A01 T00561046  RH  048%=      5-min Rain = 0
KAM3 192352Z 06006KT 05/M05 A3026 RMK A01 T00541046  RH  048%=      5-min Rain = 0
KAM3 192353Z 06006KT 05/M05 A3026 RMK A01 T00531046  RH  049%=      5-min Rain = 0
KAM3 192354Z 06006KT 05/M05 A3026 RMK A01 T00521047  RH  049%=      5-min Rain = 0
KAM3 192355Z 06006KT 05/M05 A3026 RMK A01 T00511047  RH  049%=      5-min Rain = 0
KAM3 192356Z 06006KT 05/M05 A3026 RMK A01 T00501048  RH  049%=      5-min Rain = 0
KAM3 192357Z 06006KT 05/M05 A3026 RMK A01 T00481048  RH  050%=      5-min Rain = 0
KAM3 192358Z 06006KT 05/M05 A3026 RMK A01 T00471049  RH  050%=      5-min Rain = 0
KAM3 192359Z 06006KT 05/M05 A3026 RMK A01 T00451049  RH  050%=      5-min Rain = 0
KAM3 200000Z 08007KT 04/M05 A3026 RMK A01 T00441049  RH  051%=      5-min Rain = 0
KAM3 200001Z 09006KT 04/M05 A3026 RMK A01 T00431049  RH  051%=      5-min Rain = 0
KAM3 200002Z 09006KT 04/M05 A3026 RMK A01 T00411050  RH  052%=      5-min Rain = 0
KAM3 200003Z 09006KT 04/M05 A3026 RMK A01 T00401049  RH  052%=      5-min Rain = 0
KAM3 200004Z 09006KT 04/M05 A3026 RMK A01 T00401048  RH  053%=      5-min Rain = 0
KAM3 200005Z 09006KT 04/M05 A3026 RMK A01 T00411047  RH  053%=      5-min Rain = 0
KAM3 200006Z 09006KT 04/M05 A3026 RMK A01 T00421047  RH  052%=      5-min Rain = 0
KAM3 200007Z 09005KT 04/M05 A3026 RMK A01 T00421047  RH  052%=      5-min Rain = 0
KAM3 200008Z 09006KT 04/M05 A3026 RMK A01 T00421047  RH  052%=      5-min Rain = 0
KAM3 200009Z 09005KT 04/M05 A3026 RMK A01 T00421047  RH  052%=      5-min Rain = 0
KAM3 200010Z 09006KT 04/M05 A3026 RMK A01 T00421047  RH  052%=      5-min Rain = 0
KAM3 200011Z 09006KT 04/M05 A3026 RMK A01 T00431047  RH  052%=      5-min Rain = 0
KAM3 200012Z 09006KT 04/M05 A3026 RMK A01 T00421048  RH  052%=      5-min Rain = 0
KAM3 200013Z 09006KT 04/M05 A3026 RMK A01 T00401048  RH  052%=      5-min Rain = 0
KAM3 200014Z 09006KT 04/M05 A3026 RMK A01 T00391049  RH  053%=      5-min Rain = 0
KAM3 200015Z 09006KT 04/M05 A3026 RMK A01 T00381048  RH  053%=      5-min Rain = 0
KAM3 200016Z 09006KT 04/M05 A3026 RMK A01 T00381048  RH  053%=      5-min Rain = 0
KAM3 200017Z 09006KT 04/M05 A3026 RMK A01 T00391048  RH  053%=      5-min Rain = 0
KAM3 200018Z 09006KT 04/M05 A3026 RMK A01 T00381048  RH  053%=      5-min Rain = 0
KAM3 200019Z 09006KT 04/M05 A3026 RMK A01 T00381048  RH  053%=      5-min Rain = 0
KAM3 200020Z 09006KT 04/M05 A3026 RMK A01 T00371049  RH  053%=      5-min Rain = 0
KAM3 200021Z 09006KT 04/M05 A3026 RMK A01 T00361049  RH  054%=      5-min Rain = 0
KAM3 200022Z 09006KT 04/M05 A3026 RMK A01 T00351049  RH  054%=      5-min Rain = 0
KAM3 200023Z 09006KT 03/M05 A3026 RMK A01 T00341049  RH  054%=      5-min Rain = 0
KAM3 200024Z 09006KT 03/M05 A3026 RMK A01 T00331049  RH  055%=      5-min Rain = 0
KAM3 200025Z 09006KT 03/M05 A3026 RMK A01 T00321049  RH  055%=      5-min Rain = 0
KAM3 200026Z 09006KT 03/M05 A3026 RMK A01 T00331048  RH  055%=      5-min Rain = 0
KAM3 200027Z 09006KT 03/M05 A3026 RMK A01 T00331048  RH  055%=      5-min Rain = 0
KAM3 200028Z 10006KT 03/M05 A3026 RMK A01 T00321049  RH  055%=      5-min Rain = 0
KAM3 200029Z 10005KT 03/M05 A3026 RMK A01 T00331048  RH  055%=      5-min Rain = 0
KAM3 200030Z 10006KT 03/M05 A3026 RMK A01 T00341047  RH  055%=      5-min Rain = 0
KAM3 200031Z 10006KT 03/M05 A3026 RMK A01 T00341048  RH  055%=      5-min Rain = 0
KAM3 200032Z 10006KT 04/M05 A3026 RMK A01 T00351048  RH  055%=      5-min Rain = 0
KAM3 200033Z 10006KT 03/M05 A3026 RMK A01 T00341048  RH  055%=      5-min Rain = 0
KAM3 200034Z 10005KT 03/M05 A3026 RMK A01 T00341048  RH  055%=      5-min Rain = 0
KAM3 200035Z 11005KT 03/M05 A3026 RMK A01 T00341048  RH  055%=      5-min Rain = 0
KAM3 200036Z 11005KT 03/M05 A3026 RMK A01 T00341048  RH  055%=      5-min Rain = 0
KAM3 200037Z 11005KT 04/M05 A3026 RMK A01 T00351046  RH  055%=      5-min Rain = 0
KAM3 200038Z 11005KT 04/M05 A3026 RMK A01 T00361046  RH  055%=      5-min Rain = 0
KAM3 200039Z 11006KT 04/M05 A3025 RMK A01 T00361047  RH  054%=      5-min Rain = 0
KAM3 200040Z 11006KT 04/M05 A3025 RMK A01 T00351048  RH  054%=      5-min Rain = 0
KAM3 200041Z 11006KT 03/M05 A3025 RMK A01 T00341048  RH  055%=      5-min Rain = 0
KAM3 200042Z 11006KT 03/M05 A3025 RMK A01 T00331048  RH  055%=      5-min Rain = 0
KAM3 200043Z 11006KT 03/M05 A3025 RMK A01 T00331048  RH  055%=      5-min Rain = 0
KAM3 200044Z 11007KT 03/M05 A3025 RMK A01 T00321048  RH  056%=      5-min Rain = 0
KAM3 200045Z 11007KT 03/M05 A3025 RMK A01 T00301049  RH  056%=      5-min Rain = 0
KAM3 200046Z 11007KT 03/M05 A3025 RMK A01 T00281050  RH  057%=      5-min Rain = 0
KAM3 200047Z 12006KT 03/M05 A3025 RMK A01 T00251051  RH  057%=      5-min Rain = 0
KAM3 200048Z 12006KT 02/M05 A3025 RMK A01 T00231050  RH  058%=      5-min Rain = 0
KAM3 200049Z 12007KT 02/M05 A3025 RMK A01 T00221049  RH  059%=      5-min Rain = 0
KAM3 200050Z 12007KT 02/M05 A3025 RMK A01 T00231049  RH  059%=      5-min Rain = 0
KAM3 200051Z 12007KT 02/M05 A3025 RMK A01 T00231048  RH  059%=      5-min Rain = 0
KAM3 200052Z 12007KT 02/M05 A3025 RMK A01 T00231047  RH  060%=      5-min Rain = 0
KAM3 200053Z 12007KT 02/M05 A3025 RMK A01 T00231046  RH  060%=      5-min Rain = 0
KAM3 200054Z 12007KT 02/M05 A3025 RMK A01 T00241046  RH  060%=      5-min Rain = 0
KAM3 200055Z 12007KT 02/M05 A3025 RMK A01 T00241046  RH  060%=      5-min Rain = 0
KAM3 200056Z 12007KT 03/M05 A3025 RMK A01 T00251046  RH  059%=      5-min Rain = 0
KAM3 200057Z 12007KT 02/M05 A3024 RMK A01 T00241047  RH  059%=      5-min Rain = 0
KAM3 200058Z 11007KT 02/M05 A3024 RMK A01 T00241047  RH  059%=      5-min Rain = 0
KAM3 200059Z 11007KT 02/M05 A3024 RMK A01 T00221048  RH  060%=      5-min Rain = 0
KAM3 200100Z 12007KT 02/M05 A3024 RMK A01 T00221048  RH  060%=      5-min Rain = 0
KAM3 200101Z 12007KT 02/M05 A3024 RMK A01 T00211047  RH  060%=      5-min Rain = 0
KAM3 200102Z 12006KT 02/M05 A3024 RMK A01 T00211047  RH  060%=      5-min Rain = 0
KAM3 200103Z 11007KT 02/M05 A3024 RMK A01 T00211048  RH  060%=      5-min Rain = 0
KAM3 200104Z 12007KT 02/M05 A3024 RMK A01 T00211047  RH  061%=      5-min Rain = 0
KAM3 200105Z 12007KT 02/M05 A3024 RMK A01 T00201047  RH  061%=      5-min Rain = 0
KAM3 200106Z 13007KT 02/M05 A3024 RMK A01 T00201047  RH  061%=      5-min Rain = 0
KAM3 200107Z 14007KT 02/M05 A3024 RMK A01 T00201047  RH  061%=      5-min Rain = 0
KAM3 200108Z 14007KT 02/M05 A3024 RMK A01 T00201047  RH  061%=      5-min Rain = 0
KAM3 200109Z 14007KT 02/M05 A3024 RMK A01 T00211046  RH  061%=      5-min Rain = 0
KAM3 200110Z 13007KT 02/M05 A3024 RMK A01 T00211046  RH  061%=      5-min Rain = 0
KAM3 200111Z 13006KT 02/M05 A3023 RMK A01 T00211046  RH  061%=      5-min Rain = 0
KAM3 200112Z 12007KT 02/M05 A3023 RMK A01 T00211047  RH  061%=      5-min Rain = 0
KAM3 200113Z 12006KT 02/M05 A3023 RMK A01 T00211047  RH  061%=      5-min Rain = 0
KAM3 200114Z 12006KT 02/M05 A3023 RMK A01 T00201047  RH  061%=      5-min Rain = 0
KAM3 200115Z 12007KT 02/M05 A3023 RMK A01 T00191049  RH  061%=      5-min Rain = 0
KAM3 200116Z 12007KT 02/M05 A3023 RMK A01 T00181048  RH  062%=      5-min Rain = 0
KAM3 200117Z 12007KT 02/M05 A3023 RMK A01 T00171047  RH  062%=      5-min Rain = 0
KAM3 200118Z 12007KT 02/M05 A3023 RMK A01 T00181047  RH  062%=      5-min Rain = 0
KAM3 200119Z 12007KT 02/M05 A3023 RMK A01 T00181047  RH  062%=      5-min Rain = 0
KAM3 200120Z 12007KT 02/M05 A3023 RMK A01 T00161048  RH  062%=      5-min Rain = 0
KAM3 200121Z 12006KT 02/M05 A3023 RMK A01 T00151048  RH  063%=      5-min Rain = 0
KAM3 200122Z 12006KT 02/M05 A3023 RMK A01 T00151048  RH  063%=      5-min Rain = 0
KAM3 200123Z 11006KT 02/M05 A3023 RMK A01 T00151047  RH  063%=      5-min Rain = 0
KAM3 200124Z 11008KT 02/M05 A3023 RMK A01 T00151047  RH  063%=      5-min Rain = 0
KAM3 200125Z 10007KT 02/M05 A3023 RMK A01 T00151047  RH  063%=      5-min Rain = 0
KAM3 200126Z 10008KT 02/M05 A3023 RMK A01 T00151047  RH  064%=      5-min Rain = 0
KAM3 200127Z 10007KT 02/M05 A3023 RMK A01 T00161045  RH  064%=      5-min Rain = 0
KAM3 200128Z 11007KT 02/M04 A3023 RMK A01 T00171044  RH  064%=      5-min Rain = 0
KAM3 200129Z 11007KT 02/M04 A3023 RMK A01 T00181044  RH  064%=      5-min Rain = 0
KAM3 200130Z 11007KT 02/M04 A3023 RMK A01 T00181044  RH  063%=      5-min Rain = 0
KAM3 200131Z 12007KT 02/M04 A3023 RMK A01 T00191044  RH  063%=      5-min Rain = 0
KAM3 200132Z 12007KT 02/M04 A3023 RMK A01 T00181044  RH  063%=      5-min Rain = 0
KAM3 200133Z 12006KT 02/M05 A3023 RMK A01 T00171045  RH  063%=      5-min Rain = 0
KAM3 200134Z 12007KT 02/M04 A3024 RMK A01 T00171044  RH  064%=      5-min Rain = 0
KAM3 200135Z 13006KT 02/M04 A3024 RMK A01 T00181044  RH  064%=      5-min Rain = 0
KAM3 200136Z 13006KT 02/M04 A3024 RMK A01 T00181044  RH  063%=      5-min Rain = 0
KAM3 200137Z 13006KT 02/M05 A3024 RMK A01 T00181045  RH  063%=      5-min Rain = 0
KAM3 200138Z 13006KT 02/M05 A3024 RMK A01 T00181045  RH  063%=      5-min Rain = 0
KAM3 200139Z 12007KT 02/M05 A3024 RMK A01 T00161046  RH  063%=      5-min Rain = 0
KAM3 200140Z 11007KT 02/M05 A3024 RMK A01 T00161045  RH  064%=      5-min Rain = 0
KAM3 200141Z 11007KT 02/M04 A3024 RMK A01 T00161044  RH  064%=      5-min Rain = 0
KAM3 200142Z 11007KT 02/M05 A3024 RMK A01 T00161045  RH  064%=      5-min Rain = 0
KAM3 200143Z 11007KT 02/M04 A3024 RMK A01 T00161044  RH  064%=      5-min Rain = 0
KAM3 200144Z 11006KT 02/M05 A3024 RMK A01 T00151045  RH  064%=      5-min Rain = 0
KAM3 200145Z 11007KT 01/M05 A3024 RMK A01 T00141045  RH  065%=      5-min Rain = 0
KAM3 200146Z 11006KT 02/M04 A3024 RMK A01 T00151044  RH  065%=      5-min Rain = 0
KAM3 200147Z 11006KT 02/M04 A3025 RMK A01 T00151044  RH  065%=      5-min Rain = 0
KAM3 200148Z 11005KT 02/M04 A3025 RMK A01 T00151044  RH  065%=      5-min Rain = 0
KAM3 200149Z 12006KT 01/M05 A3025 RMK A01 T00141045  RH  065%=      5-min Rain = 0
KAM3 200150Z 11006KT 01/M05 A3025 RMK A01 T00121046  RH  065%=      5-min Rain = 0
KAM3 200151Z 12006KT 01/M05 A3025 RMK A01 T00121045  RH  066%=      5-min Rain = 0
KAM3 200152Z 12006KT 01/M05 A3025 RMK A01 T00121045  RH  066%=      5-min Rain = 0
KAM3 200153Z 11006KT 01/M05 A3025 RMK A01 T00111045  RH  066%=      5-min Rain = 0
KAM3 200154Z 10006KT 01/M05 A3025 RMK A01 T00101045  RH  066%=      5-min Rain = 0
KAM3 200155Z 10006KT 01/M05 A3025 RMK A01 T00091045  RH  067%=      5-min Rain = 0
KAM3 200156Z 10006KT 01/M05 A3025 RMK A01 T00091046  RH  067%=      5-min Rain = 0
KAM3 200157Z 10005KT 01/M05 A3025 RMK A01 T00081046  RH  067%=      5-min Rain = 0
KAM3 200158Z 10005KT 01/M05 A3026 RMK A01 T00081046  RH  067%=      5-min Rain = 0
KAM3 200159Z 10006KT 01/M05 A3026 RMK A01 T00081045  RH  068%=      5-min Rain = 0
KAM3 200200Z 11005KT 01/M05 A3026 RMK A01 T00071046  RH  067%=      5-min Rain = 0
KAM3 200201Z 11006KT 01/M05 A3026 RMK A01 T00071045  RH  068%=      5-min Rain = 0
KAM3 200202Z 11006KT 01/M04 A3026 RMK A01 T00091044  RH  068%=      5-min Rain = 0
KAM3 200203Z 11006KT 01/M05 A3026 RMK A01 T00101045  RH  067%=      5-min Rain = 0
KAM3 200204Z 12005KT 01/M05 A3026 RMK A01 T00101045  RH  067%=      5-min Rain = 0
KAM3 200205Z 13004KT 01/M04 A3026 RMK A01 T00111043  RH  067%=      5-min Rain = 0
KAM3 200206Z 13005KT 01/M04 A3026 RMK A01 T00121043  RH  067%=      5-min Rain = 0
KAM3 200207Z 13005KT 01/M04 A3026 RMK A01 T00131042  RH  067%=      5-min Rain = 0
KAM3 200208Z 13005KT 01/M04 A3025 RMK A01 T00131043  RH  067%=      5-min Rain = 0
KAM3 200209Z 13005KT 01/M04 A3025 RMK A01 T00131042  RH  066%=      5-min Rain = 0
KAM3 200210Z 12005KT 01/M04 A3025 RMK A01 T00141043  RH  066%=      5-min Rain = 0
KAM3 200211Z 12005KT 01/M04 A3025 RMK A01 T00131043  RH  066%=      5-min Rain = 0
KAM3 200212Z 12004KT 01/M04 A3025 RMK A01 T00131043  RH  066%=      5-min Rain = 0
KAM3 200213Z 12005KT 01/M04 A3025 RMK A01 T00141042  RH  066%=      5-min Rain = 0
KAM3 200214Z 13005KT 01/M04 A3025 RMK A01 T00141043  RH  066%=      5-min Rain = 0
KAM3 200215Z 14006KT 01/M05 A3025 RMK A01 T00121045  RH  066%=      5-min Rain = 0
KAM3 200216Z 14006KT 01/M05 A3025 RMK A01 T00101046  RH  066%=      5-min Rain = 0
KAM3 200217Z 14006KT 01/M05 A3025 RMK A01 T00081046  RH  067%=      5-min Rain = 0
KAM3 200218Z 13006KT 01/M05 A3025 RMK A01 T00071045  RH  068%=      5-min Rain = 0
KAM3 200219Z 13006KT 01/M05 A3025 RMK A01 T00071045  RH  068%=      5-min Rain = 0
KAM3 200220Z 13007KT 01/M04 A3025 RMK A01 T00071044  RH  068%=      5-min Rain = 0
KAM3 200221Z 13007KT 01/M04 A3025 RMK A01 T00091042  RH  069%=      5-min Rain = 0
KAM3 200222Z 13006KT 01/M04 A3025 RMK A01 T00101042  RH  068%=      5-min Rain = 0
KAM3 200223Z 12006KT 01/M04 A3025 RMK A01 T00111042  RH  067%=      5-min Rain = 0
KAM3 200224Z 12005KT 01/M04 A3025 RMK A01 T00101044  RH  067%=      5-min Rain = 0
KAM3 200225Z 12005KT 01/M04 A3026 RMK A01 T00091044  RH  068%=      5-min Rain = 0
KAM3 200226Z 13006KT 01/M04 A3026 RMK A01 T00101042  RH  068%=      5-min Rain = 0
KAM3 200227Z 14006KT 01/M04 A3026 RMK A01 T00121042  RH  068%=      5-min Rain = 0
KAM3 200228Z 14006KT 01/M04 A3026 RMK A01 T00131041  RH  067%=      5-min Rain = 0
KAM3 200229Z 14006KT 01/M04 A3026 RMK A01 T00131042  RH  067%=      5-min Rain = 0
KAM3 200230Z 14005KT 01/M04 A3025 RMK A01 T00131042  RH  067%=      5-min Rain = 0
KAM3 200231Z 14005KT 01/M04 A3025 RMK A01 T00121043  RH  067%=      5-min Rain = 0
KAM3 200232Z 14006KT 01/M05 A3025 RMK A01 T00101045  RH  067%=      5-min Rain = 0
KAM3 200233Z 14006KT 01/M05 A3025 RMK A01 T00071047  RH  067%=      5-min Rain = 0
KAM3 200234Z 14006KT 00/M05 A3025 RMK A01 T00031049  RH  068%=      5-min Rain = 0
KAM3 200235Z 15006KT 00/M05 A3025 RMK A01 T00011048  RH  069%=      5-min Rain = 0
KAM3 200236Z 15006KT 00/M05 A3025 RMK A01 T00011045  RH  071%=      5-min Rain = 0
KAM3 200237Z 15006KT 00/M04 A3025 RMK A01 T00031044  RH  071%=      5-min Rain = 0
KAM3 200238Z 15006KT 00/M04 A3025 RMK A01 T00041044  RH  070%=      5-min Rain = 0
KAM3 200239Z 15007KT 00/M05 A3025 RMK A01 T00041045  RH  070%=      5-min Rain = 0
KAM3 200240Z 15007KT 00/M05 A3026 RMK A01 T00041046  RH  069%=      5-min Rain = 0
KAM3 200241Z 15006KT 00/M05 A3025 RMK A01 T00031047  RH  070%=      5-min Rain = 0
KAM3 200242Z 15006KT 00/M05 A3025 RMK A01 T00021047  RH  070%=      5-min Rain = 0
KAM3 200243Z 14007KT 00/M05 A3025 RMK A01 T00011047  RH  070%=      5-min Rain = 0
KAM3 200244Z 13007KT M00/M05 A3025 RMK A01 T10011048  RH  070%=      5-min Rain = 0
KAM3 200245Z 13007KT M00/M05 A3024 RMK A01 T10031048  RH  071%=      5-min Rain = 0
KAM3 200246Z 13008KT M00/M05 A3024 RMK A01 T10031047  RH  072%=      5-min Rain = 0
KAM3 200247Z 13008KT M00/M05 A3024 RMK A01 T10041047  RH  072%=      5-min Rain = 0
KAM3 200248Z 14008KT M00/M05 A3025 RMK A01 T10041047  RH  073%=      5-min Rain = 0
KAM3 200249Z 14008KT M00/M05 A3025 RMK A01 T10041046  RH  073%=      5-min Rain = 0
KAM3 200250Z 14008KT M00/M04 A3025 RMK A01 T10021044  RH  073%=      5-min Rain = 0
KAM3 200251Z 14008KT 00/04 A3025 RMK A01 T00-00-43  RH  073%=      5-min Rain = 0
KAM3 200252Z 14009KT 00/05 A3024 RMK A01 T00-00-45  RH  072%=      5-min Rain = 0
KAM3 200253Z 14009KT M00/M05 A3024 RMK A01 T10011046  RH  072%=      5-min Rain = 0
KAM3 200254Z 14008KT M00/M05 A3024 RMK A01 T10031046  RH  072%=      5-min Rain = 0
KAM3 200255Z 13007KT M00/M05 A3024 RMK A01 T10041047  RH  073%=      5-min Rain = 0
KAM3 200256Z 13007KT M01/M05 A3024 RMK A01 T10061048  RH  073%=      5-min Rain = 0
KAM3 200257Z 13007KT M01/M05 A3024 RMK A01 T10081048  RH  074%=      5-min Rain = 0
KAM3 200258Z 13007KT M01/M05 A3024 RMK A01 T10081047  RH  075%=      5-min Rain = 0
KAM3 200259Z 13007KT M01/M05 A3024 RMK A01 T10081047  RH  075%=      5-min Rain = 0
KAM3 200300Z 13007KT M01/M05 A3024 RMK A01 T10091047  RH  075%=      5-min Rain = 0
KAM3 200301Z 13007KT M01/M05 A3024 RMK A01 T10091048  RH  075%=      5-min Rain = 0
KAM3 200302Z 13007KT M01/M05 A3024 RMK A01 T10101047  RH  076%=      5-min Rain = 0
KAM3 200303Z 13006KT M01/M05 A3024 RMK A01 T10091047  RH  075%=      5-min Rain = 0
KAM3 200304Z 13006KT M01/M05 A3024 RMK A01 T10081046  RH  075%=      5-min Rain = 0
KAM3 200305Z 13007KT M01/M05 A3024 RMK A01 T10061045  RH  075%=      5-min Rain = 0
KAM3 200306Z 14007KT M01/M04 A3024 RMK A01 T10051044  RH  075%=      5-min Rain = 0
KAM3 200307Z 14008KT M00/M04 A3024 RMK A01 T10041044  RH  074%=      5-min Rain = 0
KAM3 200308Z 14008KT M00/M04 A3024 RMK A01 T10031044  RH  074%=      5-min Rain = 0
KAM3 200309Z 14007KT M00/M04 A3024 RMK A01 T10021044  RH  073%=      5-min Rain = 0
KAM3 200310Z 14007KT M00/M05 A3024 RMK A01 T10021045  RH  073%=      5-min Rain = 0
KAM3 200311Z 14006KT M00/M05 A3024 RMK A01 T10031046  RH  073%=      5-min Rain = 0
KAM3 200312Z 14007KT M01/M05 A3024 RMK A01 T10051047  RH  073%=      5-min Rain = 0
KAM3 200313Z 14007KT M01/M05 A3024 RMK A01 T10071049  RH  073%=      5-min Rain = 0
KAM3 200314Z 14007KT M01/M05 A3024 RMK A01 T10091050  RH  074%=      5-min Rain = 0
KAM3 200315Z 13007KT M01/M05 A3024 RMK A01 T10101048  RH  075%=      5-min Rain = 0
KAM3 200316Z 14007KT M01/M05 A3024 RMK A01 T10091046  RH  076%=      5-min Rain = 0
KAM3 200317Z 14007KT M01/M05 A3024 RMK A01 T10081045  RH  076%=      5-min Rain = 0
KAM3 200318Z 15007KT M01/M04 A3025 RMK A01 T10071044  RH  076%=      5-min Rain = 0
KAM3 200319Z 15007KT M01/M04 A3025 RMK A01 T10061044  RH  075%=      5-min Rain = 0
KAM3 200320Z 15007KT M01/M05 A3025 RMK A01 T10051045  RH  075%=      5-min Rain = 0
KAM3 200321Z 15007KT M01/M05 A3025 RMK A01 T10061046  RH  074%=      5-min Rain = 0
KAM3 200322Z 15008KT M01/M05 A3024 RMK A01 T10061045  RH  075%=      5-min Rain = 0
KAM3 200323Z 15008KT M01/M05 A3024 RMK A01 T10061045  RH  075%=      5-min Rain = 0
KAM3 200324Z 15008KT M01/M05 A3024 RMK A01 T10061045  RH  075%=      5-min Rain = 0
KAM3 200325Z 15008KT M01/M05 A3024 RMK A01 T10061045  RH  075%=      5-min Rain = 0
KAM3 200326Z 15009KT M01/M05 A3023 RMK A01 T10061045  RH  075%=      5-min Rain = 0
KAM3 200327Z 15010KT M01/M04 A3023 RMK A01 T10061044  RH  075%=      5-min Rain = 0
KAM3 200328Z 15010KT M01/M04 A3023 RMK A01 T10051044  RH  075%=      5-min Rain = 0
KAM3 200329Z 15010KT M01/M04 A3022 RMK A01 T10051044  RH  075%=      5-min Rain = 0
KAM3 200330Z 15010KT M01/M04 A3023 RMK A01 T10051044  RH  075%=      5-min Rain = 0
KAM3 200331Z 15010KT M01/M04 A3023 RMK A01 T10051044  RH  075%=      5-min Rain = 0
KAM3 200332Z 15010KT M00/M04 A3023 RMK A01 T10041043  RH  075%=      5-min Rain = 0
KAM3 200333Z 15009KT M00/M04 A3022 RMK A01 T10041043  RH  075%=      5-min Rain = 0
KAM3 200334Z 15009KT M00/M04 A3022 RMK A01 T10041043  RH  075%=      5-min Rain = 0
KAM3 200335Z 15009KT M00/M04 A3022 RMK A01 T10041043  RH  075%=      5-min Rain = 0
KAM3 200336Z 15009KT M00/M04 A3023 RMK A01 T10041044  RH  075%=      5-min Rain = 0
KAM3 200337Z 15008KT M00/M04 A3023 RMK A01 T10041043  RH  075%=      5-min Rain = 0
KAM3 200338Z 15007KT M01/M04 A3023 RMK A01 T10051044  RH  075%=      5-min Rain = 0
KAM3 200339Z 15007KT M01/M04 A3023 RMK A01 T10051043  RH  075%=      5-min Rain = 0
KAM3 200340Z 15007KT M01/M04 A3023 RMK A01 T10051043  RH  075%=      5-min Rain = 0
KAM3 200341Z 15007KT M01/M04 A3023 RMK A01 T10051044  RH  075%=      5-min Rain = 0
KAM3 200342Z 14008KT M01/M04 A3023 RMK A01 T10061044  RH  075%=      5-min Rain = 0
KAM3 200343Z 15008KT M01/M04 A3023 RMK A01 T10061044  RH  075%=      5-min Rain = 0
KAM3 200344Z 15008KT M01/M04 A3023 RMK A01 T10061044  RH  076%=      5-min Rain = 0
KAM3 200345Z 15008KT M01/M04 A3023 RMK A01 T10061043  RH  076%=      5-min Rain = 0
KAM3 200346Z 15007KT M01/M04 A3023 RMK A01 T10061043  RH  076%=      5-min Rain = 0
KAM3 200347Z 15007KT M01/M04 A3023 RMK A01 T10061043  RH  076%=      5-min Rain = 0
KAM3 200348Z 14007KT M01/M04 A3023 RMK A01 T10061043  RH  076%=      5-min Rain = 0
KAM3 200349Z 14007KT M01/M04 A3022 RMK A01 T10061043  RH  076%=      5-min Rain = 0
KAM3 200350Z 14008KT M01/M04 A3022 RMK A01 T10061043  RH  076%=      5-min Rain = 0
KAM3 200351Z 14008KT M01/M04 A3022 RMK A01 T10061043  RH  076%=      5-min Rain = 0
KAM3 200352Z 15007KT M01/M04 A3022 RMK A01 T10061042  RH  076%=      5-min Rain = 0
KAM3 200353Z 15008KT M01/M04 A3022 RMK A01 T10051042  RH  076%=      5-min Rain = 0
KAM3 200354Z 15007KT M01/M04 A3022 RMK A01 T10051042  RH  076%=      5-min Rain = 0
KAM3 200355Z 15007KT M01/M04 A3022 RMK A01 T10051042  RH  076%=      5-min Rain = 0
KAM3 200356Z 15008KT M01/M04 A3023 RMK A01 T10051042  RH  076%=      5-min Rain = 0
KAM3 200357Z 16008KT M01/M04 A3023 RMK A01 T10051042  RH  076%=      5-min Rain = 0
KAM3 200358Z 16007KT M01/M04 A3023 RMK A01 T10051042  RH  076%=      5-min Rain = 0
KAM3 200359Z 16007KT M01/M04 A3023 RMK A01 T10051042  RH  076%=      5-min Rain = 0
KAM3 200400Z 16007KT M01/M04 A3023 RMK A01 T10051042  RH  076%=      5-min Rain = 0
KAM3 200401Z 15006KT M01/M04 A3023 RMK A01 T10051043  RH  076%=      5-min Rain = 0
KAM3 200402Z 15007KT M01/M04 A3023 RMK A01 T10061043  RH  076%=      5-min Rain = 0
KAM3 200403Z 15007KT M01/M04 A3022 RMK A01 T10071044  RH  076%=      5-min Rain = 0
KAM3 200404Z 15007KT M01/M04 A3022 RMK A01 T10081044  RH  077%=      5-min Rain = 0
KAM3 200405Z 15007KT M01/M04 A3023 RMK A01 T10091044  RH  077%=      5-min Rain = 0
KAM3 200406Z 14006KT M01/M04 A3023 RMK A01 T10091043  RH  078%=      5-min Rain = 0
KAM3 200407Z 14006KT M01/M04 A3023 RMK A01 T10081042  RH  078%=      5-min Rain = 0
KAM3 200408Z 14006KT M01/M04 A3023 RMK A01 T10071041  RH  078%=      5-min Rain = 0
KAM3 200409Z 14006KT M01/M04 A3023 RMK A01 T10061042  RH  077%=      5-min Rain = 0
KAM3 200410Z 14006KT M01/M04 A3023 RMK A01 T10061042  RH  077%=      5-min Rain = 0
KAM3 200411Z 14006KT M01/M04 A3023 RMK A01 T10061042  RH  077%=      5-min Rain = 0
KAM3 200412Z 14006KT M01/M04 A3023 RMK A01 T10061041  RH  077%=      5-min Rain = 0
KAM3 200413Z 14005KT M01/M04 A3023 RMK A01 T10061041  RH  077%=      5-min Rain = 0
KAM3 200414Z 14006KT M01/M04 A3023 RMK A01 T10061042  RH  077%=      5-min Rain = 0
KAM3 200415Z 14006KT M01/M04 A3023 RMK A01 T10071043  RH  077%=      5-min Rain = 0
KAM3 200416Z 14006KT M01/M04 A3023 RMK A01 T10091043  RH  077%=      5-min Rain = 0
KAM3 200417Z 14007KT M01/M04 A3023 RMK A01 T10101044  RH  078%=      5-min Rain = 0
KAM3 200418Z 15007KT M01/M04 A3023 RMK A01 T10101043  RH  078%=      5-min Rain = 0
KAM3 200419Z 15007KT M01/M04 A3023 RMK A01 T10101042  RH  078%=      5-min Rain = 0
KAM3 200420Z 15008KT M01/M04 A3023 RMK A01 T10091042  RH  078%=      5-min Rain = 0
KAM3 200421Z 15007KT M01/M04 A3023 RMK A01 T10091042  RH  078%=      5-min Rain = 0
KAM3 200422Z 15008KT M01/M04 A3023 RMK A01 T10091042  RH  078%=      5-min Rain = 0
KAM3 200423Z 15008KT M01/M04 A3024 RMK A01 T10091042  RH  078%=      5-min Rain = 0
KAM3 200424Z 15008KT M01/M04 A3024 RMK A01 T10081042  RH  078%=      5-min Rain = 0
KAM3 200425Z 15008KT M01/M04 A3024 RMK A01 T10081041  RH  078%=      5-min Rain = 0
KAM3 200426Z 15008KT M01/M04 A3024 RMK A01 T10071041  RH  078%=      5-min Rain = 0
KAM3 200427Z 15008KT M01/M04 A3024 RMK A01 T10071041  RH  078%=      5-min Rain = 0
KAM3 200428Z 16008KT M01/M04 A3024 RMK A01 T10071042  RH  078%=      5-min Rain = 0
KAM3 200429Z 16008KT M01/M04 A3024 RMK A01 T10071042  RH  077%=      5-min Rain = 0
KAM3 200430Z 16008KT M01/M04 A3024 RMK A01 T10071042  RH  078%=      5-min Rain = 0
KAM3 200431Z 16009KT M01/M04 A3024 RMK A01 T10081042  RH  078%=      5-min Rain = 0
KAM3 200432Z 16009KT M01/M04 A3024 RMK A01 T10081042  RH  078%=      5-min Rain = 0
KAM3 200433Z 16008KT M01/M04 A3024 RMK A01 T10081041  RH  078%=      5-min Rain = 0
KAM3 200434Z 15008KT M01/M04 A3024 RMK A01 T10071040  RH  078%=      5-min Rain = 0
KAM3 200435Z 15008KT M01/M04 A3024 RMK A01 T10061040  RH  078%=      5-min Rain = 0
KAM3 200436Z 16007KT M01/M04 A3023 RMK A01 T10061041  RH  077%=      5-min Rain = 0
KAM3 200437Z 16007KT M01/M04 A3023 RMK A01 T10061041  RH  077%=      5-min Rain = 0
KAM3 200438Z 16008KT M01/M04 A3024 RMK A01 T10071041  RH  077%=      5-min Rain = 0
KAM3 200439Z 16008KT M01/M04 A3024 RMK A01 T10071041  RH  078%=      5-min Rain = 0
KAM3 200440Z 16009KT M01/M04 A3024 RMK A01 T10061039  RH  078%=      5-min Rain = 0
KAM3 200441Z 16007KT M01/M04 A3024 RMK A01 T10051038  RH  078%=      5-min Rain = 0
KAM3 200442Z 16007KT M00/M04 A3024 RMK A01 T10041038  RH  078%=      5-min Rain = 0
KAM3 200443Z 16006KT M00/M04 A3024 RMK A01 T10041038  RH  078%=      5-min Rain = 0
KAM3 200444Z 16007KT M00/M04 A3024 RMK A01 T10041039  RH  077%=      5-min Rain = 0
KAM3 200445Z 16007KT M00/M04 A3024 RMK A01 T10041040  RH  077%=      5-min Rain = 0
KAM3 200446Z 16007KT M01/M04 A3024 RMK A01 T10051040  RH  077%=      5-min Rain = 0
KAM3 200447Z 16006KT M01/M04 A3025 RMK A01 T10061040  RH  077%=      5-min Rain = 0
KAM3 200448Z 16006KT M01/M04 A3025 RMK A01 T10061041  RH  077%=      5-min Rain = 0
KAM3 200449Z 16006KT M01/M04 A3025 RMK A01 T10061041  RH  078%=      5-min Rain = 0
KAM3 200450Z 15005KT M01/M04 A3025 RMK A01 T10071041  RH  078%=      5-min Rain = 0
KAM3 200451Z 15005KT M01/M04 A3024 RMK A01 T10081042  RH  078%=      5-min Rain = 0
KAM3 200452Z 15005KT M01/M04 A3024 RMK A01 T10091043  RH  078%=      5-min Rain = 0
KAM3 200453Z 16006KT M01/M04 A3024 RMK A01 T10111044  RH  078%=      5-min Rain = 0
KAM3 200454Z 16007KT M01/M04 A3024 RMK A01 T10111044  RH  079%=      5-min Rain = 0
KAM3 200455Z 16007KT M01/M04 A3023 RMK A01 T10111043  RH  079%=      5-min Rain = 0
KAM3 200456Z 15007KT M01/M04 A3024 RMK A01 T10111043  RH  079%=      5-min Rain = 0
KAM3 200457Z 16006KT M01/M04 A3024 RMK A01 T10111042  RH  080%=      5-min Rain = 0
KAM3 200458Z 16006KT M01/M04 A3024 RMK A01 T10101041  RH  079%=      5-min Rain = 0
KAM3 200459Z 16006KT M01/M04 A3024 RMK A01 T10101042  RH  079%=      5-min Rain = 0
KAM3 200500Z 15007KT M01/M04 A3023 RMK A01 T10111043  RH  079%=      5-min Rain = 0
KAM3 200501Z 15007KT M01/M04 A3023 RMK A01 T10121044  RH  079%=      5-min Rain = 0
KAM3 200502Z 15007KT M01/M04 A3024 RMK A01 T10131043  RH  080%=      5-min Rain = 0
KAM3 200503Z 15006KT M01/M04 A3024 RMK A01 T10131043  RH  080%=      5-min Rain = 0
KAM3 200504Z 15006KT M01/M04 A3024 RMK A01 T10141044  RH  080%=      5-min Rain = 0
KAM3 200505Z 14005KT M02/M04 A3024 RMK A01 T10151044  RH  081%=      5-min Rain = 0
KAM3 200506Z 14005KT M02/M05 A3025 RMK A01 T10171046  RH  081%=      5-min Rain = 0
KAM3 200507Z 13005KT M02/M05 A3025 RMK A01 T10191047  RH  081%=      5-min Rain = 0
KAM3 200508Z 13006KT M02/M05 A3025 RMK A01 T10211048  RH  082%=      5-min Rain = 0
KAM3 200509Z 14007KT M02/M05 A3024 RMK A01 T10221047  RH  083%=      5-min Rain = 0
KAM3 200510Z 14008KT M02/M05 A3024 RMK A01 T10221045  RH  084%=      5-min Rain = 0
KAM3 200511Z 14008KT M02/M04 A3024 RMK A01 T10201043  RH  084%=      5-min Rain = 0
KAM3 200512Z 14009KT M02/M04 A3024 RMK A01 T10181041  RH  084%=      5-min Rain = 0
KAM3 200513Z 14009KT M02/M04 A3024 RMK A01 T10171040  RH  084%=      5-min Rain = 0
KAM3 200514Z 14009KT M02/M04 A3024 RMK A01 T10161041  RH  083%=      5-min Rain = 0
KAM3 200515Z 14009KT M02/M04 A3024 RMK A01 T10151041  RH  083%=      5-min Rain = 0
KAM3 200516Z 14009KT M02/M04 A3024 RMK A01 T10151041  RH  082%=      5-min Rain = 0
KAM3 200517Z 14009KT M02/M04 A3024 RMK A01 T10151041  RH  082%=      5-min Rain = 0
KAM3 200518Z 14009KT M02/M04 A3024 RMK A01 T10151041  RH  082%=      5-min Rain = 0
KAM3 200519Z 14009KT M02/M04 A3024 RMK A01 T10151042  RH  082%=      5-min Rain = 0
KAM3 200520Z 15009KT M02/M04 A3024 RMK A01 T10161043  RH  082%=      5-min Rain = 0
KAM3 200521Z 15009KT M02/M04 A3025 RMK A01 T10161043  RH  082%=      5-min Rain = 0
KAM3 200522Z 15008KT M02/M04 A3025 RMK A01 T10171043  RH  082%=      5-min Rain = 0
KAM3 200523Z 15008KT M02/M04 A3025 RMK A01 T10171043  RH  082%=      5-min Rain = 0
KAM3 200524Z 16008KT M02/M04 A3026 RMK A01 T10171043  RH  083%=      5-min Rain = 0
KAM3 200525Z 16008KT M02/M04 A3026 RMK A01 T10181043  RH  083%=      5-min Rain = 0
KAM3 200526Z 16007KT M02/M04 A3026 RMK A01 T10181044  RH  083%=      5-min Rain = 0
KAM3 200527Z 16008KT M02/M04 A3026 RMK A01 T10191044  RH  083%=      5-min Rain = 0
KAM3 200528Z 15008KT M02/M05 A3025 RMK A01 T10201045  RH  083%=      5-min Rain = 0
KAM3 200529Z 15008KT M02/M05 A3025 RMK A01 T10201045  RH  083%=      5-min Rain = 0
KAM3 200530Z 15008KT M02/M05 A3025 RMK A01 T10211046  RH  083%=      5-min Rain = 0
KAM3 200531Z 14008KT M02/M05 A3024 RMK A01 T10221046  RH  084%=      5-min Rain = 0
KAM3 200532Z 14009KT M02/M05 A3024 RMK A01 T10231046  RH  084%=      5-min Rain = 0
KAM3 200533Z 14009KT M02/M05 A3024 RMK A01 T10231045  RH  085%=      5-min Rain = 0
KAM3 200534Z 14008KT M02/M05 A3024 RMK A01 T10231045  RH  085%=      5-min Rain = 0
KAM3 200535Z 13007KT M02/M05 A3024 RMK A01 T10241045  RH  086%=      5-min Rain = 0
KAM3 200536Z 14008KT M02/M05 A3024 RMK A01 T10241046  RH  086%=      5-min Rain = 0
KAM3 200537Z 14008KT M03/M05 A3024 RMK A01 T10251046  RH  086%=      5-min Rain = 0
KAM3 200538Z 14008KT M03/M05 A3024 RMK A01 T10261046  RH  086%=      5-min Rain = 0
KAM3 200539Z 14007KT M03/M05 A3024 RMK A01 T10271046  RH  086%=      5-min Rain = 0
KAM3 200540Z 14008KT M03/M05 A3024 RMK A01 T10271046  RH  087%=      5-min Rain = 0
KAM3 200541Z 14008KT M03/M05 A3024 RMK A01 T10271045  RH  087%=      5-min Rain = 0
KAM3 200542Z 14008KT M03/M05 A3024 RMK A01 T10271045  RH  087%=      5-min Rain = 0
KAM3 200543Z 15008KT M03/M05 A3024 RMK A01 T10271045  RH  087%=      5-min Rain = 0
KAM3 200544Z 14008KT M03/M05 A3024 RMK A01 T10271045  RH  087%=      5-min Rain = 0
KAM3 200545Z 14008KT M03/M05 A3024 RMK A01 T10271045  RH  087%=      5-min Rain = 0
KAM3 200546Z 14008KT M03/M05 A3024 RMK A01 T10271046  RH  087%=      5-min Rain = 0
KAM3 200547Z 14008KT M03/M05 A3024 RMK A01 T10291048  RH  087%=      5-min Rain = 0
KAM3 200548Z 14008KT M03/M05 A3024 RMK A01 T10301048  RH  087%=      5-min Rain = 0
KAM3 200549Z 14008KT M03/M05 A3024 RMK A01 T10301047  RH  088%=      5-min Rain = 0
KAM3 200550Z 14008KT M03/M05 A3024 RMK A01 T10291045  RH  089%=      5-min Rain = 0
KAM3 200551Z 14008KT M03/M05 A3024 RMK A01 T10291045  RH  089%=      5-min Rain = 0
KAM3 200552Z 13007KT M03/M05 A3024 RMK A01 T10301047  RH  088%=      5-min Rain = 0
KAM3 200553Z 14007KT M03/M05 A3024 RMK A01 T10311048  RH  088%=      5-min Rain = 0
KAM3 200554Z 14008KT M03/M05 A3024 RMK A01 T10321047  RH  089%=      5-min Rain = 0
KAM3 200555Z 14007KT M03/M05 A3024 RMK A01 T10311045  RH  090%=      5-min Rain = 0
KAM3 200556Z 14008KT M03/M04 A3025 RMK A01 T10301043  RH  090%=      5-min Rain = 0
KAM3 200557Z 15008KT M03/M04 A3025 RMK A01 T10281042  RH  090%=      5-min Rain = 0
KAM3 200558Z 15009KT M03/M04 A3025 RMK A01 T10271042  RH  089%=      5-min Rain = 0
KAM3 200559Z 15009KT M03/M04 A3024 RMK A01 T10261043  RH  089%=      5-min Rain = 0

Page generated in 0.1257 seconds.